FDX5L EDDF-KMIA
Flight info
| Callsign | FDX5L |
|---|---|
| Flight time | 9h 42m |
| Altitude | 30000 |
| Route | OBOKA3D/07C OBOKA Z29 TORNU DCT GALSO Q63 ERING L179 UGBET Q60 OKSAW DCT FELCA DCT FADZU DCT NICXI DCT OFSOX DCT SLANY DCT KER/N0486F320 DCT TOBOR/M083F320 NATJ ALLRY/N0475F340 DCT YQX DCT ELERI/M082F340 DCT AVAST DCT DRYED M201 TILED DCT JAINS/N0479F340 AR12 HARON Y494 AYCHB Y493 JENKS DCT HOAGG BNFSH2 |
| Aircraft | B77L/H-SDE1E2E3FGHIJ2J3J4J5M1RWXY/LB1D1 |
Departure
| Time | 2026-04-13 11:00 |
|---|---|
| Airport | Frankfurt Main Airport (EDDF) |
Arrival
| Time | 2026-04-13 20:42 |
|---|---|
| Airport | Miami International Airport (KMIA) |
| Time | Latitude | Longitude | Altitude | Speed | Heading |
|---|---|---|---|---|---|
| 2026-04-13 10:09 | 50.04064 | 8.54502 | 338 ft | 0 kts | 249° |
| 2026-04-13 10:48 | 50.04069 | 8.54523 | 372 ft | 2 kts | 249° |
| 2026-04-13 10:48 | 50.04075 | 8.54547 | 368 ft | 2 kts | 249° |
| 2026-04-13 10:48 | 50.04079 | 8.54571 | 368 ft | 2 kts | 265° |
| 2026-04-13 10:48 | 50.04081 | 8.54596 | 367 ft | 2 kts | 248° |
| 2026-04-13 10:49 | 50.04090 | 8.54618 | 368 ft | 2 kts | 209° |
| 2026-04-13 10:49 | 50.04105 | 8.54622 | 367 ft | 2 kts | 158° |
| 2026-04-13 10:49 | 50.04113 | 8.54616 | 367 ft | 0 kts | 159° |
| 2026-04-13 10:54 | 50.04090 | 8.54628 | 373 ft | 8 kts | 163° |
| 2026-04-13 10:54 | 50.04031 | 8.54659 | 369 ft | 9 kts | 160° |
| 2026-04-13 10:54 | 50.03971 | 8.54684 | 372 ft | 9 kts | 184° |
| 2026-04-13 10:54 | 50.03925 | 8.54621 | 372 ft | 9 kts | 240° |
| 2026-04-13 10:55 | 50.03902 | 8.54528 | 371 ft | 9 kts | 250° |
| 2026-04-13 10:55 | 50.03879 | 8.54435 | 374 ft | 9 kts | 249° |
| 2026-04-13 10:55 | 50.03849 | 8.54350 | 370 ft | 9 kts | 224° |
| 2026-04-13 10:55 | 50.03790 | 8.54340 | 371 ft | 9 kts | 157° |
| 2026-04-13 10:56 | 50.03765 | 8.54356 | 374 ft | 0 kts | 158° |
| 2026-04-13 10:56 | 50.03763 | 8.54357 | 374 ft | 1 kts | 158° |
| 2026-04-13 10:56 | 50.03750 | 8.54364 | 370 ft | 2 kts | 158° |
| 2026-04-13 10:57 | 50.03730 | 8.54377 | 372 ft | 6 kts | 158° |
| 2026-04-13 10:57 | 50.03687 | 8.54374 | 368 ft | 6 kts | 207° |
| 2026-04-13 10:57 | 50.03654 | 8.54327 | 370 ft | 6 kts | 218° |
| 2026-04-13 10:57 | 50.03610 | 8.54311 | 372 ft | 7 kts | 173° |
| 2026-04-13 10:58 | 50.03557 | 8.54339 | 367 ft | 10 kts | 159° |
| 2026-04-13 10:58 | 50.03505 | 8.54370 | 368 ft | 5 kts | 159° |
| 2026-04-13 10:58 | 50.03493 | 8.54420 | 367 ft | 6 kts | 85° |
| 2026-04-13 10:58 | 50.03502 | 8.54465 | 367 ft | 0 kts | 69° |
| 2026-04-13 10:59 | 50.03502 | 8.54466 | 367 ft | 0 kts | 69° |
| 2026-04-13 10:59 | 50.03552 | 8.54675 | 362 ft | 54 kts | 70° |
| 2026-04-13 10:59 | 50.03761 | 8.55548 | 365 ft | 117 kts | 70° |
| 2026-04-13 11:00 | 50.04107 | 8.56994 | 375 ft | 165 kts | 69° |
| 2026-04-13 11:00 | 50.04528 | 8.58739 | 698 ft | 174 kts | 67° |
| 2026-04-13 11:00 | 50.04980 | 8.60534 | 1199 ft | 178 kts | 68° |
| 2026-04-13 11:00 | 50.05391 | 8.62375 | 1780 ft | 180 kts | 70° |
| 2026-04-13 11:01 | 50.05790 | 8.64253 | 2224 ft | 190 kts | 71° |
| 2026-04-13 11:01 | 50.06245 | 8.66332 | 2413 ft | 214 kts | 71° |
| 2026-04-13 11:01 | 50.06745 | 8.68629 | 2691 ft | 235 kts | 72° |
| 2026-04-13 11:01 | 50.07491 | 8.70942 | 3078 ft | 248 kts | 47° |
| 2026-04-13 11:02 | 50.08984 | 8.72381 | 3591 ft | 258 kts | 24° |
| 2026-04-13 11:02 | 50.10677 | 8.73471 | 4155 ft | 267 kts | 25° |
| 2026-04-13 11:02 | 50.12405 | 8.74602 | 4886 ft | 271 kts | 25° |
| 2026-04-13 11:02 | 50.14158 | 8.75759 | 5593 ft | 276 kts | 25° |
| 2026-04-13 11:03 | 50.15949 | 8.76952 | 6298 ft | 282 kts | 25° |
| 2026-04-13 11:03 | 50.17751 | 8.78160 | 6966 ft | 287 kts | 25° |
| 2026-04-13 11:03 | 50.19598 | 8.79408 | 7652 ft | 290 kts | 25° |
| 2026-04-13 11:03 | 50.21464 | 8.80672 | 8320 ft | 295 kts | 25° |
| 2026-04-13 11:04 | 50.23373 | 8.81946 | 8983 ft | 297 kts | 20° |
| 2026-04-13 11:04 | 50.25437 | 8.82401 | 9492 ft | 305 kts | 351° |
| 2026-04-13 11:04 | 50.27418 | 8.81285 | 10100 ft | 304 kts | 323° |
| 2026-04-13 11:04 | 50.28878 | 8.78940 | 10435 ft | 314 kts | 297° |
| 2026-04-13 11:05 | 50.29722 | 8.75717 | 10601 ft | 328 kts | 285° |
| 2026-04-13 11:05 | 50.30457 | 8.72199 | 10777 ft | 351 kts | 285° |
| 2026-04-13 11:05 | 50.31248 | 8.68451 | 11078 ft | 371 kts | 286° |
| 2026-04-13 11:05 | 50.32084 | 8.64575 | 11708 ft | 381 kts | 286° |
| 2026-04-13 11:06 | 50.32934 | 8.60668 | 12494 ft | 386 kts | 286° |
| 2026-04-13 11:06 | 50.33807 | 8.56659 | 13365 ft | 390 kts | 286° |
| 2026-04-13 11:06 | 50.34690 | 8.52603 | 14176 ft | 394 kts | 286° |
| 2026-04-13 11:06 | 50.35577 | 8.48523 | 14917 ft | 399 kts | 286° |
| 2026-04-13 11:07 | 50.36476 | 8.44373 | 15643 ft | 403 kts | 286° |
| 2026-04-13 11:07 | 50.37366 | 8.40236 | 16361 ft | 405 kts | 284° |
| 2026-04-13 11:07 | 50.37809 | 8.35904 | 16884 ft | 405 kts | 265° |
| 2026-04-13 11:07 | 50.37279 | 8.31570 | 17536 ft | 401 kts | 249° |
| 2026-04-13 11:08 | 50.36393 | 8.27384 | 18171 ft | 408 kts | 249° |
| 2026-04-13 11:08 | 50.35504 | 8.23127 | 18801 ft | 412 kts | 249° |
| 2026-04-13 11:08 | 50.34629 | 8.18853 | 19524 ft | 414 kts | 249° |
| 2026-04-13 11:08 | 50.33765 | 8.14597 | 20217 ft | 416 kts | 249° |
| 2026-04-13 11:09 | 50.32888 | 8.10247 | 20844 ft | 420 kts | 249° |
| 2026-04-13 11:09 | 50.32304 | 8.07342 | 21240 ft | 422 kts | 249° |
| 2026-04-13 11:09 | 50.31416 | 8.02928 | 21857 ft | 426 kts | 249° |
| 2026-04-13 11:09 | 50.30518 | 7.98482 | 22491 ft | 429 kts | 248° |
| 2026-04-13 11:10 | 50.29748 | 7.93950 | 22994 ft | 436 kts | 258° |
| 2026-04-13 11:10 | 50.29800 | 7.89199 | 23386 ft | 454 kts | 275° |
| 2026-04-13 11:10 | 50.30807 | 7.84372 | 23948 ft | 465 kts | 291° |
| 2026-04-13 11:10 | 50.32222 | 7.79886 | 24539 ft | 466 kts | 291° |
| 2026-04-13 11:11 | 50.33629 | 7.75283 | 25079 ft | 468 kts | 290° |
| 2026-04-13 11:11 | 50.35038 | 7.70661 | 25529 ft | 470 kts | 295° |
| 2026-04-13 11:11 | 50.37062 | 7.66545 | 25780 ft | 489 kts | 314° |
| 2026-04-13 11:11 | 50.39904 | 7.63529 | 26285 ft | 497 kts | 333° |
| 2026-04-13 11:12 | 50.43110 | 7.61481 | 26723 ft | 499 kts | 336° |
| 2026-04-13 11:12 | 50.46311 | 7.59451 | 27105 ft | 504 kts | 335° |
| 2026-04-13 11:12 | 50.49553 | 7.57296 | 27594 ft | 506 kts | 334° |
| 2026-04-13 11:12 | 50.52792 | 7.55068 | 28113 ft | 507 kts | 333° |
| 2026-04-13 11:13 | 50.56019 | 7.52802 | 28748 ft | 505 kts | 331° |
| 2026-04-13 11:13 | 50.59041 | 7.50160 | 29434 ft | 500 kts | 324° |
| 2026-04-13 11:13 | 50.61920 | 7.47118 | 29998 ft | 499 kts | 321° |
| 2026-04-13 11:13 | 50.64768 | 7.43951 | 29952 ft | 500 kts | 321° |
| 2026-04-13 11:14 | 50.70545 | 7.37819 | 29968 ft | 498 kts | 323° |
| 2026-04-13 11:14 | 50.75669 | 7.30785 | 29981 ft | 484 kts | 297° |
| 2026-04-13 11:15 | 50.78596 | 7.21398 | 29974 ft | 482 kts | 291° |
| 2026-04-13 11:15 | 50.81586 | 7.11962 | 29962 ft | 480 kts | 292° |
| 2026-04-13 11:16 | 50.84643 | 7.02574 | 29974 ft | 480 kts | 292° |
| 2026-04-13 11:16 | 50.87687 | 6.93148 | 29969 ft | 480 kts | 291° |
| 2026-04-13 11:17 | 50.90704 | 6.83762 | 29966 ft | 480 kts | 291° |
| 2026-04-13 11:17 | 50.93729 | 6.74313 | 29987 ft | 481 kts | 291° |
| 2026-04-13 11:18 | 50.96753 | 6.64832 | 29965 ft | 480 kts | 291° |
| 2026-04-13 11:18 | 50.99749 | 6.55407 | 29968 ft | 480 kts | 291° |
| 2026-04-13 11:19 | 51.02756 | 6.45907 | 29968 ft | 481 kts | 291° |
| 2026-04-13 11:19 | 51.05757 | 6.36390 | 29973 ft | 480 kts | 290° |
| 2026-04-13 11:20 | 51.08741 | 6.26892 | 29979 ft | 480 kts | 290° |
| 2026-04-13 11:20 | 51.11705 | 6.17423 | 29966 ft | 480 kts | 290° |
| 2026-04-13 11:21 | 51.14403 | 6.07771 | 29968 ft | 473 kts | 282° |
| 2026-04-13 11:21 | 51.16055 | 5.97700 | 29971 ft | 467 kts | 277° |
| 2026-04-13 11:22 | 51.17637 | 5.87648 | 29976 ft | 468 kts | 278° |
| 2026-04-13 11:22 | 51.19510 | 5.77724 | 29975 ft | 471 kts | 282° |
| 2026-04-13 11:23 | 51.21699 | 5.67848 | 29978 ft | 472 kts | 283° |
| 2026-04-13 11:23 | 51.23886 | 5.57970 | 29984 ft | 472 kts | 282° |
| 2026-04-13 11:24 | 51.26034 | 5.48132 | 29989 ft | 471 kts | 282° |
| 2026-04-13 11:24 | 51.28176 | 5.38221 | 29991 ft | 471 kts | 282° |
| 2026-04-13 11:25 | 51.30305 | 5.28314 | 29997 ft | 471 kts | 282° |
| 2026-04-13 11:25 | 51.32425 | 5.18404 | 29992 ft | 471 kts | 282° |
| 2026-04-13 11:26 | 51.34528 | 5.08528 | 29996 ft | 471 kts | 281° |
| 2026-04-13 11:26 | 51.36634 | 4.98589 | 29989 ft | 471 kts | 281° |
| 2026-04-13 11:27 | 51.38731 | 4.88644 | 29994 ft | 471 kts | 281° |
| 2026-04-13 11:27 | 51.40811 | 4.78734 | 30003 ft | 471 kts | 281° |
| 2026-04-13 11:28 | 51.42895 | 4.68748 | 30002 ft | 474 kts | 281° |
| 2026-04-13 11:28 | 51.44983 | 4.58694 | 29999 ft | 474 kts | 280° |
| 2026-04-13 11:29 | 51.47062 | 4.48645 | 29992 ft | 473 kts | 280° |
| 2026-04-13 11:29 | 51.49126 | 4.38614 | 30005 ft | 473 kts | 280° |
| 2026-04-13 11:30 | 51.51175 | 4.28600 | 30006 ft | 473 kts | 279° |
| 2026-04-13 11:30 | 51.53212 | 4.18596 | 29998 ft | 473 kts | 279° |
| 2026-04-13 11:31 | 51.55250 | 4.08533 | 30000 ft | 473 kts | 279° |
| 2026-04-13 11:31 | 51.57285 | 3.98435 | 29999 ft | 474 kts | 279° |
| 2026-04-13 11:32 | 51.59298 | 3.88395 | 29996 ft | 474 kts | 279° |
| 2026-04-13 11:32 | 51.61316 | 3.78275 | 29997 ft | 475 kts | 279° |
| 2026-04-13 11:33 | 51.63324 | 3.68158 | 30008 ft | 474 kts | 278° |
| 2026-04-13 11:34 | 51.66310 | 3.53010 | 29996 ft | 475 kts | 278° |
| 2026-04-13 11:34 | 51.68306 | 3.42816 | 30000 ft | 475 kts | 278° |
| 2026-04-13 11:35 | 51.70277 | 3.32706 | 30003 ft | 475 kts | 278° |
| 2026-04-13 11:35 | 51.72184 | 3.22509 | 30006 ft | 469 kts | 272° |
| 2026-04-13 11:35 | 51.72677 | 3.17357 | 30007 ft | 457 kts | 264° |
| 2026-04-13 11:36 | 51.72777 | 3.12281 | 30015 ft | 450 kts | 258° |
| 2026-04-13 11:36 | 51.72069 | 3.02492 | 30015 ft | 439 kts | 252° |
| 2026-04-13 11:37 | 51.71167 | 2.92727 | 30005 ft | 439 kts | 252° |
| 2026-04-13 11:37 | 51.70302 | 2.82991 | 30010 ft | 438 kts | 252° |
| 2026-04-13 11:38 | 51.69452 | 2.73327 | 30007 ft | 438 kts | 252° |
| 2026-04-13 11:38 | 51.68585 | 2.63604 | 30008 ft | 437 kts | 252° |
| 2026-04-13 11:39 | 51.67713 | 2.53898 | 30013 ft | 437 kts | 251° |
| 2026-04-13 11:39 | 51.66837 | 2.44247 | 30029 ft | 437 kts | 251° |
| 2026-04-13 11:40 | 51.65945 | 2.34552 | 29995 ft | 437 kts | 251° |
| 2026-04-13 11:40 | 51.65051 | 2.24888 | 30016 ft | 435 kts | 251° |
| 2026-04-13 11:41 | 51.64148 | 2.15226 | 30024 ft | 436 kts | 251° |
| 2026-04-13 11:41 | 51.63250 | 2.05612 | 30025 ft | 437 kts | 251° |
| 2026-04-13 11:42 | 51.62356 | 1.95924 | 30020 ft | 437 kts | 251° |
| 2026-04-13 11:42 | 51.61449 | 1.86233 | 30016 ft | 437 kts | 251° |
| 2026-04-13 11:43 | 51.60533 | 1.76537 | 30032 ft | 438 kts | 251° |
| 2026-04-13 11:43 | 51.59615 | 1.66900 | 30022 ft | 438 kts | 252° |
| 2026-04-13 11:44 | 51.59194 | 1.57004 | 30023 ft | 452 kts | 262° |
| 2026-04-13 11:44 | 51.59656 | 1.46836 | 30014 ft | 456 kts | 265° |
| 2026-04-13 11:45 | 51.60127 | 1.36656 | 30018 ft | 456 kts | 265° |
| 2026-04-13 11:45 | 51.60550 | 1.26530 | 30013 ft | 457 kts | 265° |
| 2026-04-13 11:46 | 51.60963 | 1.16320 | 30004 ft | 457 kts | 265° |
| 2026-04-13 11:46 | 51.61370 | 1.06094 | 30004 ft | 458 kts | 266° |
| 2026-04-13 11:47 | 51.61771 | 0.95864 | 29994 ft | 458 kts | 266° |
| 2026-04-13 11:47 | 51.62158 | 0.85698 | 29998 ft | 458 kts | 266° |
| 2026-04-13 11:48 | 51.62541 | 0.75433 | 29998 ft | 459 kts | 267° |
| 2026-04-13 11:48 | 51.62913 | 0.65195 | 30003 ft | 459 kts | 268° |
| 2026-04-13 11:49 | 51.63275 | 0.54978 | 30007 ft | 459 kts | 268° |
| 2026-04-13 11:49 | 51.63630 | 0.44720 | 29992 ft | 458 kts | 268° |
| 2026-04-13 11:50 | 51.63975 | 0.34475 | 29989 ft | 458 kts | 269° |
| 2026-04-13 11:50 | 51.64313 | 0.24223 | 29994 ft | 458 kts | 269° |
| 2026-04-13 11:51 | 51.64406 | 0.13984 | 29996 ft | 454 kts | 262° |
| 2026-04-13 11:51 | 51.63445 | 0.04070 | 29998 ft | 451 kts | 256° |
| 2026-04-13 11:52 | 51.62338 | -0.05882 | 29997 ft | 452 kts | 258° |
| 2026-04-13 11:52 | 51.61951 | -0.16035 | 29995 ft | 456 kts | 269° |
| 2026-04-13 11:53 | 51.62519 | -0.26221 | 29994 ft | 457 kts | 274° |
| 2026-04-13 11:53 | 51.63175 | -0.36340 | 29995 ft | 456 kts | 274° |
| 2026-04-13 11:54 | 51.63804 | -0.46506 | 29997 ft | 455 kts | 274° |
| 2026-04-13 11:54 | 51.64403 | -0.56578 | 29994 ft | 454 kts | 274° |
| 2026-04-13 11:55 | 51.64990 | -0.66694 | 29980 ft | 453 kts | 274° |
| 2026-04-13 11:55 | 51.65567 | -0.76781 | 29974 ft | 451 kts | 275° |
| 2026-04-13 11:56 | 51.66134 | -0.86829 | 29962 ft | 449 kts | 275° |
| 2026-04-13 11:56 | 51.66686 | -0.96768 | 29970 ft | 448 kts | 275° |
| 2026-04-13 11:57 | 51.67233 | -1.06751 | 29967 ft | 446 kts | 275° |
| 2026-04-13 11:57 | 51.67768 | -1.16699 | 29965 ft | 444 kts | 276° |
| 2026-04-13 11:58 | 51.68293 | -1.26605 | 29969 ft | 443 kts | 276° |
| 2026-04-13 11:58 | 51.68805 | -1.36418 | 29963 ft | 441 kts | 276° |
| 2026-04-13 11:59 | 51.69311 | -1.46276 | 29962 ft | 440 kts | 276° |
| 2026-04-13 11:59 | 51.69807 | -1.56091 | 29963 ft | 438 kts | 277° |
| 2026-04-13 12:00 | 51.70292 | -1.65848 | 29968 ft | 436 kts | 277° |
| 2026-04-13 12:00 | 51.70854 | -1.75512 | 29968 ft | 434 kts | 279° |
| 2026-04-13 12:01 | 51.71579 | -1.85144 | 29964 ft | 431 kts | 280° |
| 2026-04-13 12:01 | 51.72182 | -1.93135 | 29964 ft | 430 kts | 280° |
| 2026-04-13 12:02 | 51.72874 | -2.02692 | 29966 ft | 428 kts | 280° |
| 2026-04-13 12:02 | 51.73542 | -2.12203 | 29965 ft | 426 kts | 280° |
| 2026-04-13 12:03 | 51.74199 | -2.21710 | 29969 ft | 425 kts | 280° |
| 2026-04-13 12:03 | 51.74840 | -2.31107 | 29962 ft | 422 kts | 281° |
| 2026-04-13 12:04 | 51.75476 | -2.40538 | 29962 ft | 421 kts | 281° |
| 2026-04-13 12:04 | 51.76102 | -2.49922 | 29959 ft | 419 kts | 281° |
| 2026-04-13 12:05 | 51.76714 | -2.59223 | 29955 ft | 417 kts | 281° |
| 2026-04-13 12:05 | 51.77320 | -2.68532 | 29966 ft | 416 kts | 281° |
| 2026-04-13 12:06 | 51.77916 | -2.77820 | 29969 ft | 415 kts | 281° |
| 2026-04-13 12:06 | 51.78501 | -2.87033 | 29965 ft | 414 kts | 281° |
| 2026-04-13 12:07 | 51.79081 | -2.96291 | 29964 ft | 412 kts | 281° |
| 2026-04-13 12:07 | 51.79648 | -3.05457 | 29955 ft | 411 kts | 281° |
| 2026-04-13 12:08 | 51.80209 | -3.14645 | 29966 ft | 411 kts | 281° |
| 2026-04-13 12:08 | 51.80762 | -3.23819 | 29953 ft | 408 kts | 281° |
| 2026-04-13 12:09 | 51.81305 | -3.32938 | 29971 ft | 408 kts | 281° |
| 2026-04-13 12:09 | 51.81839 | -3.42023 | 29959 ft | 408 kts | 281° |
| 2026-04-13 12:10 | 51.82370 | -3.51161 | 29964 ft | 406 kts | 281° |
| 2026-04-13 12:10 | 51.83309 | -3.60100 | 29972 ft | 402 kts | 287° |
| 2026-04-13 12:11 | 51.84475 | -3.68910 | 29963 ft | 403 kts | 286° |
| 2026-04-13 12:11 | 51.85619 | -3.77760 | 29963 ft | 401 kts | 286° |
| 2026-04-13 12:12 | 51.86752 | -3.86596 | 29971 ft | 400 kts | 286° |
| 2026-04-13 12:12 | 51.87877 | -3.95420 | 29967 ft | 400 kts | 286° |
| 2026-04-13 12:13 | 51.88995 | -4.04259 | 29968 ft | 400 kts | 286° |
| 2026-04-13 12:13 | 51.90097 | -4.13039 | 29971 ft | 400 kts | 286° |
| 2026-04-13 12:14 | 51.91197 | -4.21857 | 29966 ft | 399 kts | 285° |
| 2026-04-13 12:14 | 51.92291 | -4.30671 | 29962 ft | 399 kts | 285° |
| 2026-04-13 12:15 | 51.93378 | -4.39484 | 29960 ft | 398 kts | 285° |
| 2026-04-13 12:15 | 51.94456 | -4.48291 | 29969 ft | 398 kts | 285° |
| 2026-04-13 12:16 | 51.95522 | -4.57056 | 29981 ft | 398 kts | 285° |
| 2026-04-13 12:16 | 51.96588 | -4.65877 | 29958 ft | 398 kts | 285° |
| 2026-04-13 12:17 | 51.97646 | -4.74690 | 29972 ft | 397 kts | 285° |
| 2026-04-13 12:17 | 51.98691 | -4.83446 | 29974 ft | 397 kts | 285° |
| 2026-04-13 12:18 | 51.99732 | -4.92245 | 29973 ft | 397 kts | 285° |
| 2026-04-13 12:18 | 52.00769 | -5.01041 | 29967 ft | 396 kts | 284° |
| 2026-04-13 12:19 | 52.01797 | -5.09835 | 29972 ft | 396 kts | 284° |
| 2026-04-13 12:19 | 52.02844 | -5.18621 | 29976 ft | 395 kts | 286° |
| 2026-04-13 12:20 | 52.04434 | -5.27091 | 29968 ft | 394 kts | 291° |
| 2026-04-13 12:20 | 52.06166 | -5.35578 | 29963 ft | 395 kts | 290° |
| 2026-04-13 12:21 | 52.07865 | -5.44009 | 29965 ft | 394 kts | 290° |
| 2026-04-13 12:21 | 52.09565 | -5.52496 | 29966 ft | 393 kts | 290° |
| 2026-04-13 12:22 | 52.11258 | -5.60977 | 29961 ft | 394 kts | 290° |
| 2026-04-13 12:22 | 52.12946 | -5.69471 | 29953 ft | 394 kts | 290° |
| 2026-04-13 12:23 | 52.14616 | -5.77923 | 29958 ft | 394 kts | 289° |
| 2026-04-13 12:23 | 52.15751 | -5.86693 | 29957 ft | 397 kts | 282° |
| 2026-04-13 12:24 | 52.16136 | -5.95655 | 29955 ft | 399 kts | 276° |
| 2026-04-13 12:24 | 52.16305 | -6.04696 | 29946 ft | 399 kts | 276° |
| 2026-04-13 12:25 | 52.16468 | -6.13744 | 29944 ft | 399 kts | 276° |
| 2026-04-13 12:25 | 52.16634 | -6.22795 | 29941 ft | 399 kts | 276° |
| 2026-04-13 12:26 | 52.16798 | -6.31841 | 29940 ft | 399 kts | 276° |
| 2026-04-13 12:26 | 52.16956 | -6.40844 | 29940 ft | 399 kts | 276° |
| 2026-04-13 12:27 | 52.17108 | -6.49855 | 29939 ft | 399 kts | 276° |
| 2026-04-13 12:27 | 52.17323 | -6.63407 | 29934 ft | 399 kts | 275° |
| 2026-04-13 12:28 | 52.17459 | -6.72463 | 29937 ft | 400 kts | 275° |
| 2026-04-13 12:28 | 52.17587 | -6.81527 | 29936 ft | 400 kts | 275° |
| 2026-04-13 12:29 | 52.17708 | -6.90551 | 29936 ft | 400 kts | 275° |
| 2026-04-13 12:29 | 52.17822 | -6.99627 | 29934 ft | 400 kts | 275° |
| 2026-04-13 12:30 | 52.17930 | -7.08683 | 29937 ft | 400 kts | 275° |
| 2026-04-13 12:30 | 52.18030 | -7.17685 | 29932 ft | 400 kts | 275° |
| 2026-04-13 12:31 | 52.18123 | -7.26754 | 29936 ft | 401 kts | 275° |
| 2026-04-13 12:31 | 52.18210 | -7.35865 | 29937 ft | 401 kts | 275° |
| 2026-04-13 12:32 | 52.18290 | -7.44960 | 29933 ft | 401 kts | 274° |
| 2026-04-13 12:32 | 52.18363 | -7.54000 | 29929 ft | 402 kts | 274° |
| 2026-04-13 12:33 | 52.18429 | -7.63108 | 29909 ft | 401 kts | 274° |
| 2026-04-13 12:33 | 52.18488 | -7.72218 | 29914 ft | 401 kts | 274° |
| 2026-04-13 12:34 | 52.18540 | -7.81319 | 29910 ft | 402 kts | 274° |
| 2026-04-13 12:34 | 52.18585 | -7.90380 | 29907 ft | 403 kts | 274° |
| 2026-04-13 12:35 | 52.18623 | -7.99514 | 29893 ft | 402 kts | 274° |
| 2026-04-13 12:35 | 52.18654 | -8.08647 | 29892 ft | 402 kts | 274° |
| 2026-04-13 12:36 | 52.18678 | -8.17700 | 29895 ft | 402 kts | 273° |
| 2026-04-13 12:36 | 52.18695 | -8.26830 | 29882 ft | 403 kts | 273° |
| 2026-04-13 12:37 | 52.18705 | -8.35981 | 29886 ft | 403 kts | 273° |
| 2026-04-13 12:37 | 52.18708 | -8.45124 | 29878 ft | 403 kts | 273° |
| 2026-04-13 12:38 | 52.18704 | -8.54218 | 29879 ft | 403 kts | 273° |
| 2026-04-13 12:38 | 52.18693 | -8.63357 | 29871 ft | 404 kts | 273° |
| 2026-04-13 12:39 | 52.18675 | -8.72530 | 29871 ft | 404 kts | 273° |
| 2026-04-13 12:39 | 52.18650 | -8.81702 | 29876 ft | 404 kts | 273° |
| 2026-04-13 12:40 | 52.18617 | -8.90829 | 29875 ft | 404 kts | 272° |
| 2026-04-13 12:40 | 52.18578 | -9.00002 | 29876 ft | 405 kts | 272° |
| 2026-04-13 12:41 | 52.18531 | -9.09197 | 29859 ft | 405 kts | 272° |
| 2026-04-13 12:41 | 52.18478 | -9.18325 | 29857 ft | 406 kts | 272° |
| 2026-04-13 12:42 | 52.18417 | -9.27531 | 29850 ft | 406 kts | 272° |
| 2026-04-13 12:42 | 52.18349 | -9.36727 | 29859 ft | 406 kts | 272° |
| 2026-04-13 12:43 | 52.18275 | -9.45976 | 29862 ft | 407 kts | 272° |
| 2026-04-13 12:43 | 52.18403 | -9.55174 | 29858 ft | 405 kts | 278° |
| 2026-04-13 12:44 | 52.19161 | -9.64257 | 29857 ft | 405 kts | 279° |
| 2026-04-13 12:44 | 52.19897 | -9.73306 | 29858 ft | 404 kts | 279° |
| 2026-04-13 12:45 | 52.20623 | -9.82422 | 29858 ft | 405 kts | 279° |
| 2026-04-13 12:45 | 52.21343 | -9.91551 | 29842 ft | 406 kts | 279° |
| 2026-04-13 12:46 | 52.22055 | -10.00703 | 29858 ft | 405 kts | 279° |
| 2026-04-13 12:46 | 52.22758 | -10.09817 | 29872 ft | 405 kts | 279° |
| 2026-04-13 12:47 | 52.23451 | -10.18901 | 29861 ft | 406 kts | 278° |
| 2026-04-13 12:47 | 52.24141 | -10.28053 | 29874 ft | 406 kts | 278° |
| 2026-04-13 12:48 | 52.24824 | -10.37196 | 29860 ft | 406 kts | 278° |
| 2026-04-13 12:48 | 52.25502 | -10.46357 | 29860 ft | 406 kts | 278° |
| 2026-04-13 12:49 | 52.26168 | -10.55461 | 29856 ft | 407 kts | 278° |
| 2026-04-13 12:49 | 52.26832 | -10.64642 | 29854 ft | 406 kts | 278° |
| 2026-04-13 12:50 | 52.27489 | -10.73830 | 29854 ft | 406 kts | 278° |
| 2026-04-13 12:50 | 52.28138 | -10.83005 | 29854 ft | 407 kts | 278° |
| 2026-04-13 12:51 | 52.28777 | -10.92141 | 29853 ft | 407 kts | 278° |
| 2026-04-13 12:51 | 52.29412 | -11.01323 | 29847 ft | 406 kts | 278° |
| 2026-04-13 12:52 | 52.29934 | -11.08948 | 29845 ft | 406 kts | 278° |
| 2026-04-13 12:52 | 52.30557 | -11.18151 | 29842 ft | 407 kts | 278° |
| 2026-04-13 12:53 | 52.31173 | -11.27353 | 29842 ft | 406 kts | 278° |
| 2026-04-13 12:53 | 52.31777 | -11.36495 | 29837 ft | 406 kts | 278° |
| 2026-04-13 12:54 | 52.32378 | -11.45693 | 29836 ft | 406 kts | 278° |
| 2026-04-13 12:54 | 52.32972 | -11.54891 | 29836 ft | 407 kts | 277° |
| 2026-04-13 12:55 | 52.33558 | -11.64094 | 29829 ft | 406 kts | 277° |
| 2026-04-13 12:55 | 52.34133 | -11.73225 | 29827 ft | 406 kts | 277° |
| 2026-04-13 12:56 | 52.34705 | -11.82433 | 29825 ft | 407 kts | 277° |
| 2026-04-13 12:56 | 52.35270 | -11.91641 | 29824 ft | 407 kts | 277° |
| 2026-04-13 12:57 | 52.35828 | -12.00852 | 29816 ft | 406 kts | 277° |
| 2026-04-13 12:57 | 52.36379 | -12.10062 | 29814 ft | 406 kts | 277° |
| 2026-04-13 12:58 | 52.36922 | -12.19273 | 29816 ft | 406 kts | 277° |
| 2026-04-13 12:58 | 52.37454 | -12.28420 | 29814 ft | 406 kts | 277° |
| 2026-04-13 12:59 | 52.37984 | -12.37644 | 29810 ft | 407 kts | 277° |
| 2026-04-13 12:59 | 52.38506 | -12.46869 | 29809 ft | 406 kts | 277° |
| 2026-04-13 13:00 | 52.39020 | -12.56085 | 29801 ft | 406 kts | 277° |
| 2026-04-13 13:00 | 52.39524 | -12.65240 | 29796 ft | 406 kts | 277° |
| 2026-04-13 13:01 | 52.40024 | -12.74456 | 29800 ft | 405 kts | 276° |
| 2026-04-13 13:01 | 52.40517 | -12.83682 | 29804 ft | 405 kts | 276° |
| 2026-04-13 13:02 | 52.41000 | -12.92843 | 29797 ft | 406 kts | 276° |
| 2026-04-13 13:02 | 52.41478 | -13.02059 | 29797 ft | 406 kts | 276° |
| 2026-04-13 13:03 | 52.41950 | -13.11289 | 29797 ft | 406 kts | 276° |
| 2026-04-13 13:03 | 52.42413 | -13.20512 | 29793 ft | 406 kts | 276° |
| 2026-04-13 13:04 | 52.42866 | -13.29657 | 29790 ft | 405 kts | 276° |
| 2026-04-13 13:04 | 52.43315 | -13.38873 | 29785 ft | 405 kts | 276° |
| 2026-04-13 13:05 | 52.43758 | -13.48095 | 29785 ft | 406 kts | 276° |
| 2026-04-13 13:05 | 52.44193 | -13.57330 | 29781 ft | 406 kts | 276° |
| 2026-04-13 13:06 | 52.44619 | -13.66503 | 29777 ft | 405 kts | 276° |
| 2026-04-13 13:06 | 52.45039 | -13.75729 | 29773 ft | 405 kts | 276° |
| 2026-04-13 13:07 | 52.45453 | -13.84958 | 29774 ft | 405 kts | 276° |
| 2026-04-13 13:07 | 52.45859 | -13.94202 | 29768 ft | 405 kts | 275° |
| 2026-04-13 13:08 | 52.46256 | -14.03368 | 29768 ft | 405 kts | 275° |
| 2026-04-13 13:08 | 52.46648 | -14.12600 | 29766 ft | 405 kts | 275° |
| 2026-04-13 13:09 | 52.47032 | -14.21827 | 29765 ft | 405 kts | 275° |
| 2026-04-13 13:09 | 52.47407 | -14.30987 | 29762 ft | 405 kts | 275° |
| 2026-04-13 13:10 | 52.47776 | -14.40194 | 29757 ft | 404 kts | 275° |
| 2026-04-13 13:10 | 52.48137 | -14.49385 | 29756 ft | 404 kts | 275° |
| 2026-04-13 13:11 | 52.48492 | -14.58601 | 29754 ft | 404 kts | 275° |
| 2026-04-13 13:11 | 52.48841 | -14.67819 | 29750 ft | 404 kts | 275° |
| 2026-04-13 13:12 | 52.49179 | -14.76979 | 29749 ft | 404 kts | 275° |
| 2026-04-13 13:12 | 52.49513 | -14.86179 | 29744 ft | 403 kts | 275° |
| 2026-04-13 13:13 | 52.49840 | -14.95391 | 29748 ft | 403 kts | 275° |
| 2026-04-13 13:13 | 52.50438 | -15.04469 | 29746 ft | 401 kts | 281° |
| 2026-04-13 13:14 | 52.51412 | -15.13498 | 29740 ft | 402 kts | 281° |
| 2026-04-13 13:14 | 52.52365 | -15.22545 | 29736 ft | 402 kts | 280° |
| 2026-04-13 13:15 | 52.53309 | -15.31625 | 29739 ft | 402 kts | 280° |
| 2026-04-13 13:15 | 52.54234 | -15.40615 | 29728 ft | 401 kts | 280° |
| 2026-04-13 13:16 | 52.55156 | -15.49655 | 29725 ft | 400 kts | 280° |
| 2026-04-13 13:16 | 52.56071 | -15.58690 | 29728 ft | 401 kts | 280° |
| 2026-04-13 13:17 | 52.56975 | -15.67690 | 29722 ft | 400 kts | 280° |
| 2026-04-13 13:17 | 52.57875 | -15.76720 | 29724 ft | 400 kts | 280° |
| 2026-04-13 13:18 | 52.58768 | -15.85750 | 29720 ft | 399 kts | 280° |
| 2026-04-13 13:18 | 52.59652 | -15.94769 | 29713 ft | 399 kts | 279° |
| 2026-04-13 13:19 | 52.60526 | -16.03747 | 29718 ft | 399 kts | 279° |
| 2026-04-13 13:19 | 52.61394 | -16.12751 | 29704 ft | 399 kts | 279° |
| 2026-04-13 13:20 | 52.62255 | -16.21754 | 29711 ft | 397 kts | 279° |
| 2026-04-13 13:20 | 52.63109 | -16.30754 | 29707 ft | 397 kts | 279° |
| 2026-04-13 13:21 | 52.63951 | -16.39702 | 29708 ft | 397 kts | 279° |
| 2026-04-13 13:21 | 52.64794 | -16.48737 | 29704 ft | 397 kts | 279° |
| 2026-04-13 13:22 | 52.65621 | -16.57676 | 29712 ft | 397 kts | 279° |
| 2026-04-13 13:22 | 52.66444 | -16.66654 | 29701 ft | 396 kts | 279° |
| 2026-04-13 13:23 | 52.67263 | -16.75658 | 29680 ft | 397 kts | 279° |
| 2026-04-13 13:23 | 52.68071 | -16.84622 | 29691 ft | 395 kts | 279° |
| 2026-04-13 13:24 | 52.68872 | -16.93589 | 29696 ft | 395 kts | 279° |
| 2026-04-13 13:24 | 52.69660 | -17.02491 | 29708 ft | 395 kts | 279° |
| 2026-04-13 13:25 | 52.70449 | -17.11470 | 29691 ft | 394 kts | 279° |
| 2026-04-13 13:26 | 52.71610 | -17.24847 | 29696 ft | 393 kts | 278° |
| 2026-04-13 13:26 | 52.72378 | -17.33803 | 29696 ft | 393 kts | 278° |
| 2026-04-13 13:27 | 52.73138 | -17.42742 | 29681 ft | 392 kts | 278° |
| 2026-04-13 13:27 | 52.73885 | -17.51606 | 29684 ft | 393 kts | 278° |
| 2026-04-13 13:28 | 52.74632 | -17.60554 | 29669 ft | 393 kts | 278° |
| 2026-04-13 13:28 | 52.75372 | -17.69499 | 29687 ft | 392 kts | 278° |
| 2026-04-13 13:29 | 52.76100 | -17.78381 | 29673 ft | 392 kts | 278° |
| 2026-04-13 13:29 | 52.76824 | -17.87300 | 29663 ft | 391 kts | 278° |
| 2026-04-13 13:30 | 52.77539 | -17.96211 | 29681 ft | 391 kts | 278° |
| 2026-04-13 13:30 | 52.78248 | -18.05112 | 29674 ft | 390 kts | 278° |
| 2026-04-13 13:31 | 52.78948 | -18.13995 | 29664 ft | 390 kts | 278° |
| 2026-04-13 13:31 | 52.79638 | -18.22835 | 29676 ft | 389 kts | 278° |
| 2026-04-13 13:32 | 52.80324 | -18.31710 | 29672 ft | 389 kts | 277° |
| 2026-04-13 13:32 | 52.81004 | -18.40595 | 29674 ft | 389 kts | 277° |
| 2026-04-13 13:33 | 52.81678 | -18.49490 | 29668 ft | 389 kts | 277° |
| 2026-04-13 13:33 | 52.82343 | -18.58362 | 29672 ft | 388 kts | 277° |
| 2026-04-13 13:34 | 52.82998 | -18.67186 | 29666 ft | 388 kts | 277° |
| 2026-04-13 13:34 | 52.83650 | -18.76064 | 29666 ft | 388 kts | 277° |
| 2026-04-13 13:35 | 52.84294 | -18.84937 | 29662 ft | 388 kts | 277° |
| 2026-04-13 13:35 | 52.84929 | -18.93769 | 29656 ft | 389 kts | 277° |
| 2026-04-13 13:36 | 52.85560 | -19.02637 | 29654 ft | 388 kts | 277° |
| 2026-04-13 13:36 | 52.86185 | -19.11510 | 29654 ft | 387 kts | 277° |
| 2026-04-13 13:37 | 52.86801 | -19.20361 | 29662 ft | 387 kts | 277° |
| 2026-04-13 13:37 | 52.87411 | -19.29226 | 29654 ft | 387 kts | 277° |
| 2026-04-13 13:38 | 52.88014 | -19.38079 | 29647 ft | 386 kts | 276° |
| 2026-04-13 13:38 | 52.88604 | -19.46847 | 29657 ft | 385 kts | 276° |
| 2026-04-13 13:39 | 52.89094 | -19.54196 | 29655 ft | 386 kts | 276° |
| 2026-04-13 13:39 | 52.89678 | -19.63044 | 29644 ft | 386 kts | 276° |
| 2026-04-13 13:40 | 52.90255 | -19.71902 | 29647 ft | 385 kts | 276° |
| 2026-04-13 13:40 | 52.90819 | -19.80653 | 29637 ft | 384 kts | 276° |
| 2026-04-13 13:41 | 52.91381 | -19.89482 | 29638 ft | 385 kts | 276° |
| 2026-04-13 13:41 | 52.91937 | -19.98316 | 29633 ft | 385 kts | 276° |
| 2026-04-13 13:42 | 52.92485 | -20.07141 | 29643 ft | 385 kts | 276° |
| 2026-04-13 13:42 | 52.93027 | -20.15965 | 29646 ft | 384 kts | 276° |
| 2026-04-13 13:43 | 52.93562 | -20.24786 | 29632 ft | 384 kts | 275° |
| 2026-04-13 13:43 | 52.94087 | -20.33557 | 29633 ft | 384 kts | 275° |
| 2026-04-13 13:44 | 52.94609 | -20.42381 | 29637 ft | 384 kts | 275° |
| 2026-04-13 13:44 | 52.95123 | -20.51188 | 29630 ft | 384 kts | 275° |
| 2026-04-13 13:45 | 52.95631 | -20.60006 | 29637 ft | 383 kts | 275° |
| 2026-04-13 13:45 | 52.96129 | -20.68756 | 29627 ft | 383 kts | 275° |
| 2026-04-13 13:46 | 52.96622 | -20.77551 | 29624 ft | 382 kts | 275° |
| 2026-04-13 13:46 | 52.97109 | -20.86347 | 29625 ft | 382 kts | 275° |
| 2026-04-13 13:47 | 52.97590 | -20.95139 | 29626 ft | 382 kts | 274° |
| 2026-04-13 13:47 | 52.98062 | -21.03916 | 29623 ft | 381 kts | 274° |
| 2026-04-13 13:48 | 52.98527 | -21.12652 | 29622 ft | 381 kts | 274° |
| 2026-04-13 13:48 | 52.98987 | -21.21434 | 29625 ft | 381 kts | 274° |
| 2026-04-13 13:49 | 52.99437 | -21.30152 | 29620 ft | 382 kts | 274° |
| 2026-04-13 13:49 | 52.99884 | -21.38935 | 29616 ft | 381 kts | 274° |
| 2026-04-13 13:50 | 53.00323 | -21.47702 | 29611 ft | 380 kts | 274° |
| 2026-04-13 13:50 | 53.00757 | -21.56474 | 29620 ft | 381 kts | 274° |
| 2026-04-13 13:51 | 53.01181 | -21.65200 | 29615 ft | 381 kts | 274° |
| 2026-04-13 13:51 | 53.01602 | -21.73977 | 29614 ft | 380 kts | 273° |
| 2026-04-13 13:52 | 53.02016 | -21.82747 | 29606 ft | 380 kts | 273° |
| 2026-04-13 13:52 | 53.02422 | -21.91497 | 29611 ft | 380 kts | 273° |
| 2026-04-13 13:53 | 53.02821 | -22.00242 | 29612 ft | 380 kts | 273° |
| 2026-04-13 13:53 | 53.03212 | -22.08946 | 29611 ft | 379 kts | 273° |
| 2026-04-13 13:54 | 53.03599 | -22.17695 | 29601 ft | 379 kts | 272° |
| 2026-04-13 13:54 | 53.03979 | -22.26415 | 29610 ft | 378 kts | 272° |
| 2026-04-13 13:55 | 53.04350 | -22.35121 | 29612 ft | 378 kts | 272° |
| 2026-04-13 13:55 | 53.04715 | -22.43800 | 29612 ft | 378 kts | 272° |
| 2026-04-13 13:56 | 53.05075 | -22.52532 | 29603 ft | 377 kts | 272° |
| 2026-04-13 13:56 | 53.05428 | -22.61244 | 29608 ft | 377 kts | 272° |
| 2026-04-13 13:57 | 53.05772 | -22.69892 | 29599 ft | 377 kts | 272° |
| 2026-04-13 13:57 | 53.06112 | -22.78600 | 29611 ft | 377 kts | 271° |
| 2026-04-13 13:58 | 53.06445 | -22.87314 | 29598 ft | 377 kts | 271° |
| 2026-04-13 13:58 | 53.06773 | -22.96017 | 29604 ft | 376 kts | 271° |
| 2026-04-13 13:59 | 53.07092 | -23.04668 | 29604 ft | 376 kts | 271° |
| 2026-04-13 13:59 | 53.07405 | -23.13357 | 29591 ft | 376 kts | 271° |
| 2026-04-13 14:00 | 53.07712 | -23.22025 | 29602 ft | 375 kts | 271° |
| 2026-04-13 14:00 | 53.08012 | -23.30710 | 29598 ft | 376 kts | 270° |
| 2026-04-13 14:01 | 53.08306 | -23.39340 | 29595 ft | 375 kts | 270° |
| 2026-04-13 14:01 | 53.08593 | -23.48019 | 29593 ft | 375 kts | 270° |
| 2026-04-13 14:02 | 53.08875 | -23.56702 | 29603 ft | 376 kts | 270° |
| 2026-04-13 14:02 | 53.09150 | -23.65400 | 29598 ft | 376 kts | 270° |
| 2026-04-13 14:03 | 53.09419 | -23.74058 | 29579 ft | 376 kts | 270° |
| 2026-04-13 14:03 | 53.09682 | -23.82759 | 29594 ft | 377 kts | 269° |
| 2026-04-13 14:04 | 53.09940 | -23.91485 | 29577 ft | 377 kts | 269° |
| 2026-04-13 14:04 | 53.10191 | -24.00234 | 29574 ft | 378 kts | 269° |
| 2026-04-13 14:05 | 53.10435 | -24.08906 | 29584 ft | 377 kts | 269° |
| 2026-04-13 14:05 | 53.10674 | -24.17643 | 29579 ft | 378 kts | 269° |
| 2026-04-13 14:06 | 53.10906 | -24.26384 | 29580 ft | 378 kts | 269° |
| 2026-04-13 14:06 | 53.11132 | -24.35136 | 29564 ft | 378 kts | 269° |
| 2026-04-13 14:07 | 53.11352 | -24.43868 | 29576 ft | 378 kts | 268° |
| 2026-04-13 14:07 | 53.11564 | -24.52566 | 29570 ft | 378 kts | 268° |
| 2026-04-13 14:08 | 53.11771 | -24.61335 | 29568 ft | 379 kts | 268° |
| 2026-04-13 14:08 | 53.11971 | -24.70075 | 29570 ft | 379 kts | 268° |
| 2026-04-13 14:09 | 53.12166 | -24.78865 | 29566 ft | 380 kts | 268° |
| 2026-04-13 14:09 | 53.12355 | -24.87662 | 29561 ft | 380 kts | 268° |
| 2026-04-13 14:10 | 53.12536 | -24.96431 | 29564 ft | 380 kts | 268° |
| 2026-04-13 14:10 | 53.12712 | -25.05255 | 29558 ft | 380 kts | 267° |
| 2026-04-13 14:11 | 53.12882 | -25.14054 | 29557 ft | 380 kts | 267° |
| 2026-04-13 14:11 | 53.13044 | -25.22877 | 29557 ft | 382 kts | 267° |
| 2026-04-13 14:12 | 53.13201 | -25.31692 | 29549 ft | 382 kts | 267° |
| 2026-04-13 14:12 | 53.13351 | -25.40548 | 29561 ft | 382 kts | 267° |
| 2026-04-13 14:13 | 53.13494 | -25.49371 | 29550 ft | 383 kts | 267° |
| 2026-04-13 14:13 | 53.13633 | -25.58253 | 29546 ft | 383 kts | 266° |
| 2026-04-13 14:14 | 53.13827 | -25.71590 | 29547 ft | 383 kts | 266° |
| 2026-04-13 14:14 | 53.13948 | -25.80429 | 29545 ft | 384 kts | 266° |
| 2026-04-13 14:15 | 53.14063 | -25.89344 | 29544 ft | 385 kts | 266° |
| 2026-04-13 14:15 | 53.14172 | -25.98263 | 29544 ft | 386 kts | 266° |
| 2026-04-13 14:16 | 53.14274 | -26.07214 | 29537 ft | 387 kts | 266° |
| 2026-04-13 14:16 | 53.14369 | -26.16187 | 29535 ft | 387 kts | 266° |
| 2026-04-13 14:17 | 53.14458 | -26.25114 | 29538 ft | 388 kts | 266° |
| 2026-04-13 14:17 | 53.14540 | -26.34109 | 29528 ft | 388 kts | 266° |
| 2026-04-13 14:18 | 53.14616 | -26.43108 | 29534 ft | 388 kts | 266° |
| 2026-04-13 14:18 | 53.14685 | -26.52113 | 29519 ft | 390 kts | 265° |
| 2026-04-13 14:19 | 53.14747 | -26.61153 | 29528 ft | 390 kts | 265° |
| 2026-04-13 14:19 | 53.14802 | -26.70144 | 29522 ft | 390 kts | 265° |
| 2026-04-13 14:20 | 53.14851 | -26.79194 | 29523 ft | 390 kts | 265° |
| 2026-04-13 14:20 | 53.14893 | -26.88192 | 29519 ft | 391 kts | 265° |
| 2026-04-13 14:21 | 53.14928 | -26.97262 | 29511 ft | 391 kts | 265° |
| 2026-04-13 14:21 | 53.14956 | -27.06347 | 29509 ft | 392 kts | 265° |
| 2026-04-13 14:22 | 53.14977 | -27.15454 | 29518 ft | 393 kts | 265° |
| 2026-04-13 14:22 | 53.14992 | -27.24563 | 29511 ft | 393 kts | 265° |
| 2026-04-13 14:23 | 53.14999 | -27.33641 | 29510 ft | 394 kts | 265° |
| 2026-04-13 14:23 | 53.15000 | -27.42797 | 29502 ft | 395 kts | 265° |
| 2026-04-13 14:24 | 53.14994 | -27.51950 | 29502 ft | 395 kts | 265° |
| 2026-04-13 14:24 | 53.14983 | -27.59576 | 29501 ft | 396 kts | 265° |
| 2026-04-13 14:25 | 53.14959 | -27.70262 | 29494 ft | 397 kts | 264° |
| 2026-04-13 14:25 | 53.14932 | -27.79464 | 29493 ft | 397 kts | 264° |
| 2026-04-13 14:26 | 53.14904 | -27.87129 | 29494 ft | 397 kts | 264° |
| 2026-04-13 14:26 | 53.14863 | -27.96369 | 29495 ft | 398 kts | 264° |
| 2026-04-13 14:27 | 53.14815 | -28.05548 | 29477 ft | 399 kts | 264° |
| 2026-04-13 14:27 | 53.14760 | -28.14814 | 29490 ft | 398 kts | 264° |
| 2026-04-13 14:28 | 53.14698 | -28.24000 | 29488 ft | 399 kts | 264° |
| 2026-04-13 14:28 | 53.14629 | -28.33238 | 29482 ft | 399 kts | 264° |
| 2026-04-13 14:29 | 53.14552 | -28.42503 | 29475 ft | 399 kts | 264° |
| 2026-04-13 14:29 | 53.14469 | -28.51714 | 29481 ft | 400 kts | 264° |
| 2026-04-13 14:30 | 53.14377 | -28.60982 | 29470 ft | 400 kts | 264° |
| 2026-04-13 14:30 | 53.14279 | -28.70259 | 29471 ft | 400 kts | 264° |
| 2026-04-13 14:31 | 53.14173 | -28.79548 | 29471 ft | 401 kts | 264° |
| 2026-04-13 14:31 | 53.14060 | -28.88827 | 29468 ft | 401 kts | 263° |
| 2026-04-13 14:32 | 53.13940 | -28.98122 | 29464 ft | 401 kts | 263° |
| 2026-04-13 14:32 | 53.13814 | -29.07340 | 29460 ft | 401 kts | 263° |
| 2026-04-13 14:33 | 53.13679 | -29.16638 | 29462 ft | 401 kts | 263° |
| 2026-04-13 14:33 | 53.13537 | -29.25937 | 29453 ft | 402 kts | 263° |
| 2026-04-13 14:34 | 53.13387 | -29.35264 | 29459 ft | 402 kts | 263° |
| 2026-04-13 14:34 | 53.13230 | -29.44584 | 29453 ft | 402 kts | 263° |
| 2026-04-13 14:35 | 53.13067 | -29.53850 | 29447 ft | 402 kts | 263° |
| 2026-04-13 14:35 | 53.12896 | -29.63171 | 29454 ft | 402 kts | 262° |
| 2026-04-13 14:36 | 53.12717 | -29.72489 | 29448 ft | 403 kts | 262° |
| 2026-04-13 14:36 | 53.12530 | -29.81817 | 29447 ft | 404 kts | 262° |
| 2026-04-13 14:37 | 53.12337 | -29.91116 | 29434 ft | 404 kts | 262° |
| 2026-04-13 14:37 | 53.12136 | -30.00477 | 29437 ft | 404 kts | 262° |
| 2026-04-13 14:38 | 53.11926 | -30.09850 | 29434 ft | 405 kts | 262° |
| 2026-04-13 14:38 | 53.11711 | -30.19165 | 29433 ft | 405 kts | 261° |
| 2026-04-13 14:39 | 53.11487 | -30.28554 | 29428 ft | 405 kts | 261° |
| 2026-04-13 14:39 | 53.11255 | -30.37949 | 29427 ft | 406 kts | 261° |
| 2026-04-13 14:40 | 53.11016 | -30.47313 | 29425 ft | 407 kts | 261° |
| 2026-04-13 14:40 | 53.10770 | -30.56721 | 29421 ft | 407 kts | 261° |
| 2026-04-13 14:41 | 53.10515 | -30.66137 | 29417 ft | 408 kts | 261° |
| 2026-04-13 14:41 | 53.10251 | -30.75599 | 29411 ft | 408 kts | 260° |
| 2026-04-13 14:42 | 53.09980 | -30.85057 | 29409 ft | 409 kts | 260° |
| 2026-04-13 14:42 | 53.09704 | -30.94457 | 29410 ft | 409 kts | 260° |
| 2026-04-13 14:43 | 53.09417 | -31.03936 | 29407 ft | 410 kts | 260° |
| 2026-04-13 14:43 | 53.09122 | -31.13436 | 29407 ft | 411 kts | 259° |
| 2026-04-13 14:44 | 53.08820 | -31.22949 | 29398 ft | 411 kts | 259° |
| 2026-04-13 14:44 | 53.08509 | -31.32464 | 29396 ft | 412 kts | 259° |
| 2026-04-13 14:45 | 53.08192 | -31.41943 | 29394 ft | 413 kts | 259° |
| 2026-04-13 14:45 | 53.07865 | -31.51498 | 29387 ft | 413 kts | 259° |
| 2026-04-13 14:46 | 53.07530 | -31.61052 | 29378 ft | 415 kts | 259° |
| 2026-04-13 14:46 | 53.07185 | -31.70659 | 29374 ft | 416 kts | 259° |
| 2026-04-13 14:47 | 53.06836 | -31.80199 | 29389 ft | 416 kts | 259° |
| 2026-04-13 14:47 | 53.06475 | -31.89825 | 29375 ft | 417 kts | 258° |
| 2026-04-13 14:48 | 53.06104 | -31.99500 | 29373 ft | 419 kts | 258° |
| 2026-04-13 14:48 | 53.05726 | -32.09173 | 29368 ft | 419 kts | 258° |
| 2026-04-13 14:49 | 53.05343 | -32.18787 | 29370 ft | 420 kts | 258° |
| 2026-04-13 14:49 | 53.04946 | -32.28508 | 29368 ft | 421 kts | 258° |
| 2026-04-13 14:50 | 53.04541 | -32.38260 | 29362 ft | 423 kts | 258° |
| 2026-04-13 14:50 | 53.04127 | -32.48023 | 29359 ft | 424 kts | 258° |
| 2026-04-13 14:51 | 53.03707 | -32.57751 | 29353 ft | 425 kts | 258° |
| 2026-04-13 14:51 | 53.03275 | -32.67567 | 29351 ft | 425 kts | 258° |
| 2026-04-13 14:52 | 53.02835 | -32.77382 | 29348 ft | 426 kts | 258° |
| 2026-04-13 14:52 | 53.02384 | -32.87231 | 29345 ft | 428 kts | 258° |
| 2026-04-13 14:53 | 53.01927 | -32.97059 | 29340 ft | 429 kts | 258° |
| 2026-04-13 14:53 | 53.01458 | -33.06953 | 29337 ft | 430 kts | 258° |
| 2026-04-13 14:54 | 53.00980 | -33.16876 | 29337 ft | 432 kts | 258° |
| 2026-04-13 14:54 | 53.00491 | -33.26831 | 29334 ft | 433 kts | 258° |
| 2026-04-13 14:55 | 52.99992 | -33.36826 | 29330 ft | 434 kts | 257° |
| 2026-04-13 14:55 | 52.99486 | -33.46797 | 29330 ft | 435 kts | 258° |
| 2026-04-13 14:56 | 52.98968 | -33.56831 | 29333 ft | 437 kts | 258° |
| 2026-04-13 14:56 | 52.98439 | -33.66916 | 29331 ft | 439 kts | 258° |
| 2026-04-13 14:57 | 52.97900 | -33.77027 | 29329 ft | 441 kts | 258° |
| 2026-04-13 14:58 | 52.97073 | -33.92229 | 29330 ft | 443 kts | 258° |
| 2026-04-13 14:58 | 52.96507 | -34.02439 | 29315 ft | 444 kts | 258° |
| 2026-04-13 14:59 | 52.95930 | -34.12675 | 29320 ft | 446 kts | 258° |
| 2026-04-13 14:59 | 52.95346 | -34.22871 | 29320 ft | 447 kts | 258° |
| 2026-04-13 15:00 | 52.94748 | -34.33166 | 29315 ft | 448 kts | 258° |
| 2026-04-13 15:00 | 52.94139 | -34.43491 | 29310 ft | 450 kts | 258° |
| 2026-04-13 15:01 | 52.93520 | -34.53825 | 29304 ft | 451 kts | 258° |
| 2026-04-13 15:01 | 52.92896 | -34.64109 | 29310 ft | 452 kts | 258° |
| 2026-04-13 15:02 | 52.92256 | -34.74498 | 29311 ft | 452 kts | 258° |
| 2026-04-13 15:02 | 52.91607 | -34.84875 | 29304 ft | 453 kts | 258° |
| 2026-04-13 15:03 | 52.90951 | -34.95215 | 29291 ft | 454 kts | 258° |
| 2026-04-13 15:03 | 52.90281 | -35.05643 | 29308 ft | 454 kts | 258° |
| 2026-04-13 15:04 | 52.89600 | -35.16087 | 29292 ft | 455 kts | 258° |
| 2026-04-13 15:04 | 52.88915 | -35.26449 | 29296 ft | 456 kts | 258° |
| 2026-04-13 15:05 | 52.88214 | -35.36905 | 29298 ft | 457 kts | 258° |
| 2026-04-13 15:05 | 52.87503 | -35.47385 | 29291 ft | 457 kts | 258° |
| 2026-04-13 15:06 | 52.86782 | -35.57853 | 29284 ft | 458 kts | 258° |
| 2026-04-13 15:06 | 52.86056 | -35.68272 | 29283 ft | 458 kts | 258° |
| 2026-04-13 15:07 | 52.85315 | -35.78765 | 29286 ft | 459 kts | 258° |
| 2026-04-13 15:07 | 52.84564 | -35.89273 | 29277 ft | 460 kts | 258° |
| 2026-04-13 15:08 | 52.83802 | -35.99788 | 29277 ft | 460 kts | 258° |
| 2026-04-13 15:08 | 52.83034 | -36.10266 | 29277 ft | 461 kts | 257° |
| 2026-04-13 15:09 | 52.82252 | -36.20805 | 29263 ft | 462 kts | 257° |
| 2026-04-13 15:09 | 52.81459 | -36.31361 | 29266 ft | 463 kts | 257° |
| 2026-04-13 15:10 | 52.80657 | -36.41902 | 29260 ft | 464 kts | 257° |
| 2026-04-13 15:10 | 52.79842 | -36.52482 | 29258 ft | 465 kts | 257° |
| 2026-04-13 15:11 | 52.79017 | -36.63081 | 29253 ft | 465 kts | 257° |
| 2026-04-13 15:11 | 52.78323 | -36.71896 | 29250 ft | 466 kts | 257° |
| 2026-04-13 15:12 | 52.77477 | -36.82526 | 29251 ft | 466 kts | 257° |
| 2026-04-13 15:12 | 52.76622 | -36.93149 | 29248 ft | 467 kts | 257° |
| 2026-04-13 15:13 | 52.75754 | -37.03802 | 29236 ft | 468 kts | 257° |
| 2026-04-13 15:13 | 52.74884 | -37.14366 | 29233 ft | 468 kts | 257° |
| 2026-04-13 15:14 | 52.73999 | -37.25000 | 29227 ft | 468 kts | 257° |
| 2026-04-13 15:14 | 52.73101 | -37.35653 | 29227 ft | 468 kts | 257° |
| 2026-04-13 15:15 | 52.72195 | -37.46299 | 29223 ft | 468 kts | 257° |
| 2026-04-13 15:15 | 52.71278 | -37.56944 | 29222 ft | 469 kts | 257° |
| 2026-04-13 15:16 | 52.70352 | -37.67588 | 29216 ft | 469 kts | 257° |
| 2026-04-13 15:16 | 52.69421 | -37.78171 | 29212 ft | 469 kts | 257° |
| 2026-04-13 15:17 | 52.68474 | -37.88830 | 29212 ft | 469 kts | 257° |
| 2026-04-13 15:17 | 52.67518 | -37.99471 | 29211 ft | 469 kts | 257° |
| 2026-04-13 15:18 | 52.66551 | -38.10131 | 29209 ft | 469 kts | 258° |
| 2026-04-13 15:18 | 52.65580 | -38.20718 | 29203 ft | 469 kts | 258° |
| 2026-04-13 15:19 | 52.64596 | -38.31341 | 29198 ft | 469 kts | 258° |
| 2026-04-13 15:19 | 52.63602 | -38.41971 | 29192 ft | 469 kts | 258° |
| 2026-04-13 15:20 | 52.62605 | -38.52520 | 29190 ft | 469 kts | 258° |
| 2026-04-13 15:20 | 52.61591 | -38.63146 | 29186 ft | 470 kts | 258° |
| 2026-04-13 15:21 | 52.60568 | -38.73765 | 29178 ft | 470 kts | 258° |
| 2026-04-13 15:21 | 52.59534 | -38.84388 | 29184 ft | 470 kts | 258° |
| 2026-04-13 15:22 | 52.58491 | -38.95011 | 29175 ft | 470 kts | 258° |
| 2026-04-13 15:22 | 52.57444 | -39.05568 | 29178 ft | 470 kts | 258° |
| 2026-04-13 15:23 | 52.56379 | -39.16205 | 29169 ft | 470 kts | 258° |
| 2026-04-13 15:23 | 52.55312 | -39.26760 | 29171 ft | 470 kts | 258° |
| 2026-04-13 15:24 | 52.54231 | -39.37362 | 29169 ft | 471 kts | 258° |
| 2026-04-13 15:24 | 52.53137 | -39.47983 | 29161 ft | 471 kts | 258° |
| 2026-04-13 15:25 | 52.52034 | -39.58602 | 29157 ft | 471 kts | 258° |
| 2026-04-13 15:25 | 52.50920 | -39.69228 | 29157 ft | 471 kts | 258° |
| 2026-04-13 15:26 | 52.49805 | -39.79767 | 29148 ft | 472 kts | 258° |
| 2026-04-13 15:26 | 52.48671 | -39.90389 | 29150 ft | 472 kts | 258° |
| 2026-04-13 15:27 | 52.47532 | -40.00968 | 29147 ft | 472 kts | 259° |
| 2026-04-13 15:27 | 52.46379 | -40.11579 | 29148 ft | 472 kts | 259° |
| 2026-04-13 15:28 | 52.45215 | -40.22205 | 29148 ft | 473 kts | 259° |
| 2026-04-13 15:28 | 52.44049 | -40.32756 | 29131 ft | 473 kts | 259° |
| 2026-04-13 15:29 | 52.42864 | -40.43381 | 29123 ft | 473 kts | 259° |
| 2026-04-13 15:29 | 52.41670 | -40.54003 | 29125 ft | 474 kts | 259° |
| 2026-04-13 15:30 | 52.40466 | -40.64615 | 29133 ft | 474 kts | 259° |
| 2026-04-13 15:30 | 52.39259 | -40.75168 | 29127 ft | 474 kts | 259° |
| 2026-04-13 15:31 | 52.38037 | -40.85772 | 29120 ft | 474 kts | 259° |
| 2026-04-13 15:31 | 52.36800 | -40.96404 | 29121 ft | 474 kts | 259° |
| 2026-04-13 15:32 | 52.35565 | -41.06941 | 29115 ft | 474 kts | 259° |
| 2026-04-13 15:32 | 52.34312 | -41.17541 | 29120 ft | 474 kts | 259° |
| 2026-04-13 15:33 | 52.33050 | -41.28134 | 29121 ft | 474 kts | 259° |
| 2026-04-13 15:33 | 52.31780 | -41.38710 | 29111 ft | 475 kts | 259° |
| 2026-04-13 15:34 | 52.29852 | -41.54601 | 29105 ft | 474 kts | 259° |
| 2026-04-13 15:34 | 52.28566 | -41.65093 | 29111 ft | 474 kts | 259° |
| 2026-04-13 15:35 | 52.27261 | -41.75662 | 29114 ft | 474 kts | 259° |
| 2026-04-13 15:35 | 52.25945 | -41.86236 | 29096 ft | 474 kts | 259° |
| 2026-04-13 15:36 | 52.24622 | -41.96791 | 29101 ft | 474 kts | 259° |
| 2026-04-13 15:36 | 52.23290 | -42.07330 | 29130 ft | 475 kts | 259° |
| 2026-04-13 15:37 | 52.21954 | -42.17818 | 29115 ft | 476 kts | 259° |
| 2026-04-13 15:37 | 52.20596 | -42.28403 | 29130 ft | 477 kts | 259° |
| 2026-04-13 15:38 | 52.19225 | -42.39006 | 29131 ft | 479 kts | 259° |
| 2026-04-13 15:38 | 52.17837 | -42.49664 | 29140 ft | 482 kts | 259° |
| 2026-04-13 15:39 | 52.16430 | -42.60398 | 29150 ft | 493 kts | 259° |
| 2026-04-13 15:39 | 52.14963 | -42.71490 | 29144 ft | 503 kts | 259° |
| 2026-04-13 15:40 | 52.13499 | -42.82445 | 29129 ft | 485 kts | 259° |
| 2026-04-13 15:40 | 52.12080 | -42.92987 | 29148 ft | 472 kts | 260° |
| 2026-04-13 15:41 | 52.10682 | -43.03326 | 29163 ft | 466 kts | 260° |
| 2026-04-13 15:41 | 52.09267 | -43.13761 | 29197 ft | 482 kts | 259° |
| 2026-04-13 15:42 | 52.07782 | -43.24607 | 29203 ft | 499 kts | 260° |
| 2026-04-13 15:42 | 52.06258 | -43.35595 | 29188 ft | 490 kts | 260° |
| 2026-04-13 15:43 | 52.04774 | -43.46204 | 29193 ft | 472 kts | 260° |
| 2026-04-13 15:43 | 52.03343 | -43.56413 | 29203 ft | 463 kts | 260° |
| 2026-04-13 15:44 | 52.01890 | -43.66741 | 29239 ft | 469 kts | 260° |
| 2026-04-13 15:44 | 52.00418 | -43.77142 | 29257 ft | 479 kts | 260° |
| 2026-04-13 15:45 | 51.98894 | -43.87810 | 29264 ft | 497 kts | 260° |
| 2026-04-13 15:45 | 51.97327 | -43.98654 | 29252 ft | 488 kts | 260° |
| 2026-04-13 15:46 | 51.95775 | -44.09312 | 29270 ft | 485 kts | 260° |
| 2026-04-13 15:46 | 51.94202 | -44.20105 | 29280 ft | 495 kts | 259° |
| 2026-04-13 15:47 | 51.92624 | -44.30819 | 29286 ft | 486 kts | 259° |
| 2026-04-13 15:47 | 51.91032 | -44.41581 | 29307 ft | 493 kts | 260° |
| 2026-04-13 15:48 | 51.89443 | -44.52217 | 29302 ft | 485 kts | 260° |
| 2026-04-13 15:48 | 51.87851 | -44.62809 | 29337 ft | 486 kts | 259° |
| 2026-04-13 15:49 | 51.86231 | -44.73535 | 29337 ft | 491 kts | 260° |
| 2026-04-13 15:49 | 51.84605 | -44.84212 | 29336 ft | 486 kts | 259° |
| 2026-04-13 15:50 | 51.82984 | -44.94777 | 29352 ft | 482 kts | 260° |
| 2026-04-13 15:50 | 51.81348 | -45.05424 | 29371 ft | 495 kts | 259° |
| 2026-04-13 15:51 | 51.79681 | -45.16141 | 29359 ft | 487 kts | 259° |
| 2026-04-13 15:51 | 51.78037 | -45.26618 | 29381 ft | 482 kts | 259° |
| 2026-04-13 15:52 | 51.76371 | -45.37252 | 29391 ft | 488 kts | 259° |
| 2026-04-13 15:52 | 51.74705 | -45.47763 | 29407 ft | 481 kts | 259° |
| 2026-04-13 15:53 | 51.73032 | -45.58297 | 29415 ft | 490 kts | 259° |
| 2026-04-13 15:53 | 51.71346 | -45.68811 | 29425 ft | 477 kts | 259° |
| 2026-04-13 15:54 | 51.69668 | -45.79202 | 29456 ft | 486 kts | 259° |
| 2026-04-13 15:54 | 51.67963 | -45.89725 | 29460 ft | 483 kts | 259° |
| 2026-04-13 15:55 | 51.66274 | -46.00028 | 29450 ft | 470 kts | 259° |
| 2026-04-13 15:55 | 51.64617 | -46.10089 | 29455 ft | 459 kts | 259° |
| 2026-04-13 15:56 | 51.62985 | -46.19973 | 29486 ft | 456 kts | 259° |
| 2026-04-13 15:56 | 51.61343 | -46.29875 | 29497 ft | 467 kts | 258° |
| 2026-04-13 15:57 | 51.59628 | -46.40165 | 29512 ft | 483 kts | 258° |
| 2026-04-13 15:57 | 51.57870 | -46.50598 | 29499 ft | 478 kts | 258° |
| 2026-04-13 15:58 | 51.56142 | -46.60756 | 29501 ft | 470 kts | 258° |
| 2026-04-13 15:58 | 51.54417 | -46.70891 | 29519 ft | 471 kts | 258° |
| 2026-04-13 15:59 | 51.52963 | -46.79416 | 29541 ft | 481 kts | 258° |
| 2026-04-13 15:59 | 51.51189 | -46.89731 | 29529 ft | 475 kts | 258° |
| 2026-04-13 16:00 | 51.49417 | -46.99942 | 29543 ft | 473 kts | 258° |
| 2026-04-13 16:00 | 51.47649 | -47.10115 | 29548 ft | 475 kts | 256° |
| 2026-04-13 16:01 | 51.45889 | -47.20202 | 29562 ft | 466 kts | 258° |
| 2026-04-13 16:01 | 51.44118 | -47.30236 | 29568 ft | 468 kts | 257° |
| 2026-04-13 16:02 | 51.42349 | -47.40212 | 29585 ft | 463 kts | 258° |
| 2026-04-13 16:02 | 51.40596 | -47.50048 | 29597 ft | 460 kts | 257° |
| 2026-04-13 16:03 | 51.38838 | -47.59880 | 29599 ft | 458 kts | 257° |
| 2026-04-13 16:03 | 51.37073 | -47.69673 | 29596 ft | 456 kts | 257° |
| 2026-04-13 16:04 | 51.35326 | -47.79335 | 29615 ft | 449 kts | 257° |
| 2026-04-13 16:04 | 51.33584 | -47.88909 | 29611 ft | 446 kts | 256° |
| 2026-04-13 16:05 | 51.31849 | -47.98393 | 29632 ft | 442 kts | 257° |
| 2026-04-13 16:05 | 51.30136 | -48.07721 | 29629 ft | 437 kts | 256° |
| 2026-04-13 16:06 | 51.28418 | -48.17023 | 29654 ft | 436 kts | 256° |
| 2026-04-13 16:06 | 51.26693 | -48.26326 | 29667 ft | 437 kts | 256° |
| 2026-04-13 16:07 | 51.24952 | -48.35659 | 29668 ft | 438 kts | 256° |
| 2026-04-13 16:07 | 51.23203 | -48.45000 | 29674 ft | 438 kts | 255° |
| 2026-04-13 16:08 | 51.21467 | -48.54201 | 29675 ft | 433 kts | 255° |
| 2026-04-13 16:08 | 51.19736 | -48.63314 | 29686 ft | 426 kts | 255° |
| 2026-04-13 16:09 | 51.18009 | -48.72390 | 29700 ft | 429 kts | 256° |
| 2026-04-13 16:09 | 51.16271 | -48.81501 | 29721 ft | 433 kts | 255° |
| 2026-04-13 16:10 | 51.14487 | -48.90806 | 29734 ft | 447 kts | 255° |
| 2026-04-13 16:10 | 51.12661 | -49.00271 | 29713 ft | 440 kts | 255° |
| 2026-04-13 16:11 | 51.11767 | -49.04863 | 29723 ft | 429 kts | 255° |
| 2026-04-13 16:11 | 51.10890 | -49.09352 | 29722 ft | 419 kts | 256° |
| 2026-04-13 16:11 | 51.10031 | -49.13731 | 29732 ft | 408 kts | 255° |
| 2026-04-13 16:11 | 51.09196 | -49.17993 | 29738 ft | 399 kts | 256° |
| 2026-04-13 16:12 | 51.07548 | -49.26432 | 29764 ft | 410 kts | 256° |
| 2026-04-13 16:12 | 51.06692 | -49.30830 | 29769 ft | 422 kts | 256° |
| 2026-04-13 16:12 | 51.05809 | -49.35339 | 29778 ft | 433 kts | 256° |
| 2026-04-13 16:13 | 51.03966 | -49.44679 | 29772 ft | 446 kts | 256° |
| 2026-04-13 16:13 | 51.02137 | -49.53849 | 29767 ft | 429 kts | 255° |
| 2026-04-13 16:14 | 51.00364 | -49.62706 | 29780 ft | 414 kts | 256° |
| 2026-04-13 16:14 | 50.98618 | -49.71423 | 29811 ft | 417 kts | 256° |
| 2026-04-13 16:15 | 50.96830 | -49.80335 | 29810 ft | 427 kts | 256° |
| 2026-04-13 16:15 | 50.95010 | -49.89366 | 29827 ft | 432 kts | 256° |
| 2026-04-13 16:16 | 50.93169 | -49.98432 | 29828 ft | 431 kts | 256° |
| 2026-04-13 16:16 | 50.91340 | -50.07365 | 29840 ft | 427 kts | 256° |
| 2026-04-13 16:17 | 50.89500 | -50.16328 | 29854 ft | 428 kts | 256° |
| 2026-04-13 16:17 | 50.87659 | -50.25270 | 29871 ft | 430 kts | 256° |
| 2026-04-13 16:18 | 50.85790 | -50.34308 | 29871 ft | 433 kts | 256° |
| 2026-04-13 16:18 | 50.83901 | -50.43403 | 29862 ft | 435 kts | 256° |
| 2026-04-13 16:19 | 50.82009 | -50.52462 | 29886 ft | 433 kts | 256° |
| 2026-04-13 16:19 | 50.80112 | -50.61504 | 29903 ft | 432 kts | 256° |
| 2026-04-13 16:20 | 50.78221 | -50.70489 | 29902 ft | 433 kts | 256° |
| 2026-04-13 16:20 | 50.76309 | -50.79524 | 29916 ft | 433 kts | 256° |
| 2026-04-13 16:21 | 50.74389 | -50.88556 | 29921 ft | 433 kts | 256° |
| 2026-04-13 16:21 | 50.72475 | -50.97524 | 29935 ft | 433 kts | 256° |
| 2026-04-13 16:22 | 50.70535 | -51.06570 | 29939 ft | 434 kts | 256° |
| 2026-04-13 16:23 | 50.67622 | -51.20082 | 29951 ft | 433 kts | 256° |
| 2026-04-13 16:23 | 50.65681 | -51.29032 | 29958 ft | 433 kts | 257° |
| 2026-04-13 16:24 | 50.63725 | -51.38018 | 29966 ft | 433 kts | 257° |
| 2026-04-13 16:24 | 50.61758 | -51.47011 | 29975 ft | 433 kts | 257° |
| 2026-04-13 16:25 | 50.59799 | -51.55931 | 29979 ft | 433 kts | 257° |
| 2026-04-13 16:25 | 50.57824 | -51.64885 | 29992 ft | 433 kts | 257° |
| 2026-04-13 16:26 | 50.55838 | -51.73854 | 29998 ft | 433 kts | 257° |
| 2026-04-13 16:26 | 50.53848 | -51.82803 | 30003 ft | 433 kts | 257° |
| 2026-04-13 16:27 | 50.51868 | -51.91672 | 30014 ft | 433 kts | 257° |
| 2026-04-13 16:27 | 50.49256 | -52.00334 | 30019 ft | 445 kts | 244° |
| 2026-04-13 16:28 | 50.45337 | -52.08004 | 30039 ft | 455 kts | 233° |
| 2026-04-13 16:28 | 50.40942 | -52.15190 | 30040 ft | 457 kts | 233° |
| 2026-04-13 16:29 | 50.36558 | -52.22314 | 30040 ft | 456 kts | 233° |
| 2026-04-13 16:29 | 50.32174 | -52.29493 | 30051 ft | 455 kts | 233° |
| 2026-04-13 16:30 | 50.28538 | -52.35469 | 30064 ft | 455 kts | 233° |
| 2026-04-13 16:30 | 50.23423 | -52.43865 | 30064 ft | 455 kts | 233° |
| 2026-04-13 16:31 | 50.19075 | -52.50978 | 30073 ft | 455 kts | 233° |
| 2026-04-13 16:31 | 50.14699 | -52.58113 | 30080 ft | 454 kts | 233° |
| 2026-04-13 16:32 | 50.10308 | -52.65256 | 30091 ft | 455 kts | 233° |
| 2026-04-13 16:32 | 50.05956 | -52.72313 | 30091 ft | 454 kts | 233° |
| 2026-04-13 16:33 | 50.01570 | -52.79405 | 30106 ft | 454 kts | 232° |
| 2026-04-13 16:33 | 49.97171 | -52.86498 | 30100 ft | 454 kts | 232° |
| 2026-04-13 16:34 | 49.92798 | -52.93531 | 30113 ft | 454 kts | 232° |
| 2026-04-13 16:34 | 49.88410 | -53.00566 | 30113 ft | 453 kts | 232° |
| 2026-04-13 16:35 | 49.84021 | -53.07583 | 30119 ft | 452 kts | 232° |
| 2026-04-13 16:35 | 49.79635 | -53.14578 | 30122 ft | 452 kts | 232° |
| 2026-04-13 16:36 | 49.75264 | -53.21531 | 30138 ft | 453 kts | 231° |
| 2026-04-13 16:36 | 49.70867 | -53.28504 | 30135 ft | 452 kts | 231° |
| 2026-04-13 16:37 | 49.66467 | -53.35461 | 30140 ft | 452 kts | 231° |
| 2026-04-13 16:37 | 49.62062 | -53.42409 | 30141 ft | 452 kts | 231° |
| 2026-04-13 16:38 | 49.57691 | -53.49284 | 30148 ft | 451 kts | 231° |
| 2026-04-13 16:38 | 49.53286 | -53.56195 | 30147 ft | 451 kts | 231° |
| 2026-04-13 16:39 | 49.48887 | -53.63075 | 30152 ft | 450 kts | 231° |
| 2026-04-13 16:39 | 49.44509 | -53.69904 | 30151 ft | 450 kts | 231° |
| 2026-04-13 16:40 | 49.40106 | -53.76755 | 30156 ft | 450 kts | 231° |
| 2026-04-13 16:40 | 49.35701 | -53.83590 | 30158 ft | 450 kts | 230° |
| 2026-04-13 16:41 | 49.31285 | -53.90423 | 30160 ft | 449 kts | 230° |
| 2026-04-13 16:41 | 49.26891 | -53.97205 | 30159 ft | 448 kts | 230° |
| 2026-04-13 16:42 | 49.22523 | -54.03929 | 30169 ft | 448 kts | 230° |
| 2026-04-13 16:42 | 49.18116 | -54.10693 | 30165 ft | 448 kts | 230° |
| 2026-04-13 16:43 | 49.13722 | -54.17422 | 30168 ft | 447 kts | 230° |
| 2026-04-13 16:43 | 49.09313 | -54.24153 | 30154 ft | 447 kts | 230° |
| 2026-04-13 16:44 | 49.04916 | -54.30849 | 30164 ft | 446 kts | 230° |
| 2026-04-13 16:44 | 49.00522 | -54.37525 | 30156 ft | 446 kts | 230° |
| 2026-04-13 16:45 | 48.96155 | -54.44142 | 30159 ft | 445 kts | 229° |
| 2026-04-13 16:45 | 48.91754 | -54.50795 | 30152 ft | 445 kts | 229° |
| 2026-04-13 16:46 | 48.88281 | -54.56503 | 30155 ft | 440 kts | 235° |
| 2026-04-13 16:46 | 48.83810 | -54.64937 | 30159 ft | 440 kts | 236° |
| 2026-04-13 16:47 | 48.80619 | -54.70958 | 30163 ft | 440 kts | 235° |
| 2026-04-13 16:47 | 48.76774 | -54.78159 | 30154 ft | 439 kts | 235° |
| 2026-04-13 16:48 | 48.72904 | -54.85363 | 30167 ft | 438 kts | 235° |
| 2026-04-13 16:48 | 48.69063 | -54.92488 | 30160 ft | 438 kts | 234° |
| 2026-04-13 16:49 | 48.65206 | -54.99623 | 30167 ft | 437 kts | 234° |
| 2026-04-13 16:49 | 48.61339 | -55.06763 | 30217 ft | 445 kts | 234° |
| 2026-04-13 16:49 | 48.59346 | -55.10442 | 30372 ft | 457 kts | 234° |
| 2026-04-13 16:50 | 48.57337 | -55.14143 | 30625 ft | 465 kts | 234° |
| 2026-04-13 16:50 | 48.55265 | -55.17952 | 30957 ft | 470 kts | 234° |
| 2026-04-13 16:50 | 48.53213 | -55.21713 | 31398 ft | 471 kts | 234° |
| 2026-04-13 16:50 | 48.51138 | -55.25504 | 31745 ft | 468 kts | 234° |
| 2026-04-13 16:51 | 48.49059 | -55.29301 | 32155 ft | 470 kts | 234° |
| 2026-04-13 16:51 | 48.46999 | -55.33061 | 32712 ft | 468 kts | 234° |
| 2026-04-13 16:51 | 48.44930 | -55.36830 | 33308 ft | 465 kts | 234° |
| 2026-04-13 16:51 | 48.42860 | -55.40596 | 33890 ft | 464 kts | 234° |
| 2026-04-13 16:52 | 48.40797 | -55.44347 | 34348 ft | 463 kts | 234° |
| 2026-04-13 16:52 | 48.38747 | -55.48070 | 34760 ft | 462 kts | 233° |
| 2026-04-13 16:52 | 48.36694 | -55.51794 | 35184 ft | 461 kts | 233° |
| 2026-04-13 16:52 | 48.34647 | -55.55499 | 35624 ft | 460 kts | 233° |
| 2026-04-13 16:53 | 48.32627 | -55.59153 | 36032 ft | 458 kts | 233° |
| 2026-04-13 16:53 | 48.30589 | -55.62834 | 36424 ft | 457 kts | 233° |
| 2026-04-13 16:53 | 48.28547 | -55.66517 | 36808 ft | 457 kts | 233° |
| 2026-04-13 16:53 | 48.26518 | -55.70172 | 37206 ft | 456 kts | 233° |
| 2026-04-13 16:54 | 48.24484 | -55.73830 | 37587 ft | 454 kts | 233° |
| 2026-04-13 16:54 | 48.22473 | -55.77443 | 37952 ft | 454 kts | 233° |
| 2026-04-13 16:54 | 48.20442 | -55.81085 | 38111 ft | 455 kts | 232° |
| 2026-04-13 16:55 | 48.16393 | -55.88334 | 38178 ft | 455 kts | 232° |
| 2026-04-13 16:55 | 48.12308 | -55.95625 | 38176 ft | 454 kts | 232° |
| 2026-04-13 16:56 | 48.08274 | -56.02808 | 38180 ft | 453 kts | 232° |
| 2026-04-13 16:56 | 48.04213 | -56.10018 | 38183 ft | 453 kts | 232° |
| 2026-04-13 16:57 | 48.00143 | -56.17224 | 38190 ft | 453 kts | 232° |
| 2026-04-13 16:57 | 47.96089 | -56.24384 | 38183 ft | 453 kts | 232° |
| 2026-04-13 16:58 | 47.92006 | -56.31575 | 38187 ft | 454 kts | 232° |
| 2026-04-13 16:58 | 47.87933 | -56.38729 | 38187 ft | 453 kts | 232° |
| 2026-04-13 16:59 | 47.83849 | -56.45886 | 38193 ft | 453 kts | 232° |
| 2026-04-13 16:59 | 47.79758 | -56.53034 | 38200 ft | 453 kts | 232° |
| 2026-04-13 17:00 | 47.75693 | -56.60118 | 38205 ft | 453 kts | 232° |
| 2026-04-13 17:00 | 47.71586 | -56.67255 | 38205 ft | 453 kts | 232° |
| 2026-04-13 17:01 | 47.67481 | -56.74365 | 38230 ft | 453 kts | 232° |
| 2026-04-13 17:01 | 47.63381 | -56.81457 | 38219 ft | 453 kts | 232° |
| 2026-04-13 17:02 | 47.59290 | -56.88514 | 38222 ft | 453 kts | 232° |
| 2026-04-13 17:02 | 47.55176 | -56.95588 | 38230 ft | 453 kts | 232° |
| 2026-04-13 17:03 | 47.51079 | -57.02617 | 38231 ft | 453 kts | 232° |
| 2026-04-13 17:03 | 47.46958 | -57.09668 | 38240 ft | 452 kts | 232° |
| 2026-04-13 17:04 | 47.42830 | -57.16710 | 38231 ft | 452 kts | 232° |
| 2026-04-13 17:04 | 47.38701 | -57.23739 | 38249 ft | 453 kts | 232° |
| 2026-04-13 17:05 | 47.34586 | -57.30724 | 38239 ft | 453 kts | 232° |
| 2026-04-13 17:05 | 47.30437 | -57.37749 | 38246 ft | 453 kts | 232° |
| 2026-04-13 17:06 | 47.26309 | -57.44719 | 38234 ft | 453 kts | 232° |
| 2026-04-13 17:06 | 47.22160 | -57.51707 | 38243 ft | 453 kts | 232° |
| 2026-04-13 17:07 | 47.17998 | -57.58699 | 38233 ft | 453 kts | 233° |
| 2026-04-13 17:07 | 47.13833 | -57.65679 | 38238 ft | 453 kts | 233° |
| 2026-04-13 17:08 | 47.09694 | -57.72597 | 38225 ft | 453 kts | 233° |
| 2026-04-13 17:08 | 47.05520 | -57.79554 | 38227 ft | 453 kts | 233° |
| 2026-04-13 17:09 | 47.01342 | -57.86502 | 38225 ft | 453 kts | 233° |
| 2026-04-13 17:09 | 46.97158 | -57.93440 | 38227 ft | 453 kts | 233° |
| 2026-04-13 17:10 | 46.93004 | -58.00311 | 38236 ft | 453 kts | 233° |
| 2026-04-13 17:10 | 46.88820 | -58.07216 | 38228 ft | 453 kts | 233° |
| 2026-04-13 17:11 | 46.84650 | -58.14079 | 38217 ft | 453 kts | 233° |
| 2026-04-13 17:11 | 46.80456 | -58.20965 | 38225 ft | 453 kts | 233° |
| 2026-04-13 17:12 | 46.76246 | -58.27858 | 38224 ft | 453 kts | 233° |
| 2026-04-13 17:12 | 46.72063 | -58.34692 | 38226 ft | 453 kts | 233° |
| 2026-04-13 17:13 | 46.67848 | -58.41558 | 38224 ft | 454 kts | 233° |
| 2026-04-13 17:13 | 46.63657 | -58.48369 | 38217 ft | 454 kts | 233° |
| 2026-04-13 17:14 | 46.59430 | -58.55221 | 38213 ft | 453 kts | 234° |
| 2026-04-13 17:14 | 46.55229 | -58.62014 | 38216 ft | 453 kts | 234° |
| 2026-04-13 17:15 | 46.51002 | -58.68833 | 38225 ft | 454 kts | 234° |
| 2026-04-13 17:15 | 46.46785 | -58.75618 | 38224 ft | 454 kts | 234° |
| 2026-04-13 17:16 | 46.42543 | -58.82426 | 38217 ft | 455 kts | 234° |
| 2026-04-13 17:16 | 46.38287 | -58.89239 | 38219 ft | 455 kts | 234° |
| 2026-04-13 17:17 | 46.34034 | -58.96029 | 38216 ft | 455 kts | 234° |
| 2026-04-13 17:17 | 46.29794 | -59.02784 | 38217 ft | 455 kts | 234° |
| 2026-04-13 17:18 | 46.25531 | -59.09556 | 38212 ft | 455 kts | 234° |
| 2026-04-13 17:18 | 46.21441 | -59.16040 | 38220 ft | 456 kts | 234° |
| 2026-04-13 17:19 | 46.17184 | -59.22770 | 38211 ft | 456 kts | 234° |
| 2026-04-13 17:19 | 46.12904 | -59.29521 | 38210 ft | 456 kts | 234° |
| 2026-04-13 17:20 | 46.08618 | -59.36262 | 38212 ft | 455 kts | 234° |
| 2026-04-13 17:20 | 46.04353 | -59.42956 | 38219 ft | 455 kts | 234° |
| 2026-04-13 17:21 | 46.00065 | -59.49671 | 38211 ft | 455 kts | 234° |
| 2026-04-13 17:21 | 45.95762 | -59.56390 | 38225 ft | 455 kts | 234° |
| 2026-04-13 17:22 | 45.91495 | -59.63038 | 38219 ft | 454 kts | 234° |
| 2026-04-13 17:22 | 45.87199 | -59.69713 | 38220 ft | 454 kts | 234° |
| 2026-04-13 17:23 | 45.82907 | -59.76367 | 38234 ft | 454 kts | 234° |
| 2026-04-13 17:23 | 45.78610 | -59.83013 | 38227 ft | 454 kts | 234° |
| 2026-04-13 17:24 | 45.74343 | -59.89595 | 38224 ft | 454 kts | 234° |
| 2026-04-13 17:24 | 45.70029 | -59.96235 | 38225 ft | 453 kts | 235° |
| 2026-04-13 17:25 | 45.65751 | -60.02803 | 38223 ft | 453 kts | 235° |
| 2026-04-13 17:25 | 45.61451 | -60.09388 | 38227 ft | 453 kts | 235° |
| 2026-04-13 17:26 | 45.57145 | -60.15968 | 38235 ft | 453 kts | 235° |
| 2026-04-13 17:26 | 45.52825 | -60.22555 | 38232 ft | 454 kts | 235° |
| 2026-04-13 17:27 | 45.46366 | -60.32369 | 38227 ft | 453 kts | 235° |
| 2026-04-13 17:27 | 45.42045 | -60.38914 | 38218 ft | 452 kts | 235° |
| 2026-04-13 17:28 | 45.37747 | -60.45410 | 38229 ft | 452 kts | 235° |
| 2026-04-13 17:28 | 45.33423 | -60.51931 | 38221 ft | 452 kts | 235° |
| 2026-04-13 17:29 | 45.29122 | -60.58402 | 38229 ft | 452 kts | 235° |
| 2026-04-13 17:29 | 45.24802 | -60.64884 | 38221 ft | 451 kts | 235° |
| 2026-04-13 17:30 | 45.20471 | -60.71367 | 38228 ft | 451 kts | 235° |
| 2026-04-13 17:30 | 45.18312 | -60.74593 | 37641 ft | 450 kts | 237° |
| 2026-04-13 17:30 | 45.16186 | -60.77764 | 37925 ft | 449 kts | 236° |
| 2026-04-13 17:31 | 45.14023 | -60.80991 | 38077 ft | 451 kts | 236° |
| 2026-04-13 17:31 | 45.11856 | -60.84225 | 38156 ft | 454 kts | 236° |
| 2026-04-13 17:31 | 45.07489 | -60.90725 | 38234 ft | 456 kts | 236° |
| 2026-04-13 17:32 | 45.03110 | -60.97212 | 38227 ft | 453 kts | 236° |
| 2026-04-13 17:32 | 44.99497 | -61.02552 | 38223 ft | 451 kts | 236° |
| 2026-04-13 17:33 | 44.94448 | -61.10008 | 38229 ft | 451 kts | 236° |
| 2026-04-13 17:33 | 44.90092 | -61.16427 | 38235 ft | 452 kts | 236° |
| 2026-04-13 17:34 | 44.84275 | -61.24972 | 38234 ft | 453 kts | 236° |
| 2026-04-13 17:35 | 44.79929 | -61.31337 | 38234 ft | 453 kts | 236° |
| 2026-04-13 17:35 | 44.75565 | -61.37714 | 38231 ft | 452 kts | 236° |
| 2026-04-13 17:36 | 44.71191 | -61.44090 | 38233 ft | 452 kts | 235° |
| 2026-04-13 17:36 | 44.66813 | -61.50459 | 38231 ft | 452 kts | 235° |
| 2026-04-13 17:37 | 44.62460 | -61.56776 | 38229 ft | 452 kts | 235° |
| 2026-04-13 17:37 | 44.58068 | -61.63135 | 38243 ft | 452 kts | 235° |
| 2026-04-13 17:38 | 44.53715 | -61.69422 | 38229 ft | 452 kts | 235° |
| 2026-04-13 17:38 | 44.49307 | -61.75775 | 38225 ft | 451 kts | 235° |
| 2026-04-13 17:39 | 44.44947 | -61.82044 | 38222 ft | 451 kts | 235° |
| 2026-04-13 17:39 | 44.40566 | -61.88329 | 38224 ft | 450 kts | 235° |
| 2026-04-13 17:40 | 44.36192 | -61.94589 | 38218 ft | 450 kts | 235° |
| 2026-04-13 17:40 | 44.31807 | -62.00852 | 38221 ft | 450 kts | 235° |
| 2026-04-13 17:41 | 44.27452 | -62.07057 | 38216 ft | 449 kts | 235° |
| 2026-04-13 17:41 | 44.23071 | -62.13286 | 38219 ft | 449 kts | 234° |
| 2026-04-13 17:42 | 44.18685 | -62.19507 | 38217 ft | 449 kts | 234° |
| 2026-04-13 17:42 | 44.14330 | -62.25670 | 38216 ft | 449 kts | 234° |
| 2026-04-13 17:43 | 44.09951 | -62.31854 | 38214 ft | 448 kts | 234° |
| 2026-04-13 17:43 | 44.05567 | -62.38031 | 38212 ft | 448 kts | 234° |
| 2026-04-13 17:44 | 44.01182 | -62.44196 | 38213 ft | 448 kts | 234° |
| 2026-04-13 17:44 | 43.96813 | -62.50324 | 38213 ft | 447 kts | 234° |
| 2026-04-13 17:45 | 43.92428 | -62.56460 | 38204 ft | 447 kts | 234° |
| 2026-04-13 17:45 | 43.88065 | -62.62553 | 38202 ft | 447 kts | 234° |
| 2026-04-13 17:46 | 43.83676 | -62.68669 | 38202 ft | 446 kts | 234° |
| 2026-04-13 17:46 | 43.79285 | -62.74775 | 38198 ft | 446 kts | 234° |
| 2026-04-13 17:47 | 43.74913 | -62.80839 | 38194 ft | 446 kts | 234° |
| 2026-04-13 17:47 | 43.70525 | -62.86913 | 38195 ft | 446 kts | 234° |
| 2026-04-13 17:48 | 43.66160 | -62.92941 | 38189 ft | 446 kts | 234° |
| 2026-04-13 17:48 | 43.61762 | -62.99004 | 38200 ft | 446 kts | 234° |
| 2026-04-13 17:49 | 43.57365 | -63.05050 | 38199 ft | 446 kts | 234° |
| 2026-04-13 17:49 | 43.52965 | -63.11086 | 38197 ft | 445 kts | 234° |
| 2026-04-13 17:50 | 43.48592 | -63.17074 | 38193 ft | 445 kts | 234° |
| 2026-04-13 17:50 | 43.44192 | -63.23085 | 38188 ft | 445 kts | 234° |
| 2026-04-13 17:51 | 43.39783 | -63.29095 | 38191 ft | 445 kts | 234° |
| 2026-04-13 17:51 | 43.35407 | -63.35049 | 38189 ft | 445 kts | 234° |
| 2026-04-13 17:52 | 43.30994 | -63.41040 | 38187 ft | 445 kts | 234° |
| 2026-04-13 17:52 | 43.26604 | -63.46986 | 38187 ft | 445 kts | 234° |
| 2026-04-13 17:53 | 43.22929 | -63.51953 | 38185 ft | 445 kts | 234° |
| 2026-04-13 17:53 | 43.17753 | -63.58935 | 38183 ft | 446 kts | 234° |
| 2026-04-13 17:54 | 43.13327 | -63.64891 | 38181 ft | 446 kts | 234° |
| 2026-04-13 17:54 | 43.08929 | -63.70796 | 38200 ft | 445 kts | 234° |
| 2026-04-13 17:55 | 43.04497 | -63.76736 | 38188 ft | 446 kts | 233° |
| 2026-04-13 17:55 | 43.00051 | -63.82682 | 38185 ft | 447 kts | 233° |
| 2026-04-13 17:56 | 42.95596 | -63.88625 | 38186 ft | 447 kts | 233° |
| 2026-04-13 17:56 | 42.91167 | -63.94522 | 38190 ft | 446 kts | 233° |
| 2026-04-13 17:57 | 42.86709 | -64.00446 | 38187 ft | 447 kts | 233° |
| 2026-04-13 17:57 | 42.82241 | -64.06370 | 38183 ft | 448 kts | 233° |
| 2026-04-13 17:58 | 42.77773 | -64.12281 | 38185 ft | 448 kts | 233° |
| 2026-04-13 17:58 | 42.73300 | -64.18186 | 38183 ft | 447 kts | 233° |
| 2026-04-13 17:59 | 42.68861 | -64.24035 | 38189 ft | 447 kts | 232° |
| 2026-04-13 17:59 | 42.64388 | -64.29919 | 38189 ft | 447 kts | 232° |
| 2026-04-13 18:00 | 42.59899 | -64.35799 | 38189 ft | 448 kts | 231° |
| 2026-04-13 18:00 | 42.54887 | -64.41029 | 38190 ft | 461 kts | 220° |
| 2026-04-13 18:01 | 42.49296 | -64.45300 | 38188 ft | 465 kts | 217° |
| 2026-04-13 18:01 | 42.43619 | -64.49512 | 38193 ft | 465 kts | 217° |
| 2026-04-13 18:02 | 42.37949 | -64.53753 | 38191 ft | 464 kts | 217° |
| 2026-04-13 18:02 | 42.32336 | -64.57975 | 38193 ft | 464 kts | 217° |
| 2026-04-13 18:03 | 42.26686 | -64.62224 | 38200 ft | 464 kts | 217° |
| 2026-04-13 18:03 | 42.21026 | -64.66471 | 38201 ft | 465 kts | 217° |
| 2026-04-13 18:04 | 42.15369 | -64.70703 | 38206 ft | 465 kts | 217° |
| 2026-04-13 18:04 | 42.09748 | -64.74900 | 38208 ft | 464 kts | 217° |
| 2026-04-13 18:05 | 42.04087 | -64.79119 | 38209 ft | 464 kts | 217° |
| 2026-04-13 18:05 | 41.98423 | -64.83334 | 38210 ft | 465 kts | 217° |
| 2026-04-13 18:06 | 41.92752 | -64.87533 | 38212 ft | 467 kts | 216° |
| 2026-04-13 18:06 | 41.86787 | -64.91158 | 38214 ft | 471 kts | 211° |
| 2026-04-13 18:07 | 41.80737 | -64.94556 | 38217 ft | 471 kts | 210° |
| 2026-04-13 18:07 | 41.74677 | -64.97968 | 38227 ft | 472 kts | 211° |
| 2026-04-13 18:08 | 41.68669 | -65.01376 | 38234 ft | 473 kts | 211° |
| 2026-04-13 18:08 | 41.62601 | -65.04823 | 38225 ft | 472 kts | 211° |
| 2026-04-13 18:09 | 41.56550 | -65.08255 | 38224 ft | 471 kts | 211° |
| 2026-04-13 18:09 | 41.50545 | -65.11654 | 38236 ft | 471 kts | 210° |
| 2026-04-13 18:10 | 41.44483 | -65.15080 | 38237 ft | 472 kts | 210° |
| 2026-04-13 18:10 | 41.38421 | -65.18497 | 38243 ft | 473 kts | 210° |
| 2026-04-13 18:11 | 41.32398 | -65.21884 | 38241 ft | 472 kts | 210° |
| 2026-04-13 18:11 | 41.26341 | -65.25284 | 38245 ft | 472 kts | 210° |
| 2026-04-13 18:12 | 41.20312 | -65.28661 | 38243 ft | 472 kts | 210° |
| 2026-04-13 18:12 | 41.14251 | -65.32050 | 38253 ft | 472 kts | 210° |
| 2026-04-13 18:13 | 41.08192 | -65.35431 | 38260 ft | 472 kts | 210° |
| 2026-04-13 18:13 | 41.02160 | -65.38790 | 38261 ft | 472 kts | 210° |
| 2026-04-13 18:14 | 40.96076 | -65.42171 | 38261 ft | 473 kts | 210° |
| 2026-04-13 18:14 | 40.90034 | -65.45522 | 38259 ft | 473 kts | 210° |
| 2026-04-13 18:15 | 40.83954 | -65.48887 | 38261 ft | 473 kts | 210° |
| 2026-04-13 18:15 | 40.77879 | -65.52242 | 38266 ft | 472 kts | 210° |
| 2026-04-13 18:16 | 40.71835 | -65.55575 | 38268 ft | 472 kts | 210° |
| 2026-04-13 18:16 | 40.65765 | -65.58916 | 38273 ft | 473 kts | 209° |
| 2026-04-13 18:17 | 40.59675 | -65.62261 | 38270 ft | 474 kts | 209° |
| 2026-04-13 18:17 | 40.53605 | -65.65587 | 38279 ft | 474 kts | 209° |
| 2026-04-13 18:18 | 40.47510 | -65.68920 | 38274 ft | 473 kts | 209° |
| 2026-04-13 18:18 | 40.41458 | -65.72223 | 38278 ft | 473 kts | 209° |
| 2026-04-13 18:19 | 40.35365 | -65.75543 | 38284 ft | 473 kts | 209° |
| 2026-04-13 18:19 | 40.29299 | -65.78843 | 38289 ft | 474 kts | 209° |
| 2026-04-13 18:20 | 40.23199 | -65.82153 | 38290 ft | 473 kts | 209° |
| 2026-04-13 18:20 | 40.17102 | -65.85455 | 38290 ft | 473 kts | 209° |
| 2026-04-13 18:21 | 40.11041 | -65.88731 | 38296 ft | 473 kts | 209° |
| 2026-04-13 18:21 | 40.04933 | -65.92027 | 38293 ft | 474 kts | 209° |
| 2026-04-13 18:22 | 39.98861 | -65.95297 | 38297 ft | 474 kts | 209° |
| 2026-04-13 18:22 | 39.93786 | -65.98025 | 38302 ft | 474 kts | 209° |
| 2026-04-13 18:23 | 39.86683 | -66.01835 | 38303 ft | 473 kts | 208° |
| 2026-04-13 18:23 | 39.81603 | -66.04556 | 38306 ft | 474 kts | 208° |
| 2026-04-13 18:24 | 39.75497 | -66.07820 | 38307 ft | 475 kts | 208° |
| 2026-04-13 18:24 | 39.69381 | -66.11083 | 38307 ft | 474 kts | 208° |
| 2026-04-13 18:25 | 39.63270 | -66.14337 | 38318 ft | 474 kts | 208° |
| 2026-04-13 18:25 | 39.57192 | -66.17567 | 38315 ft | 475 kts | 208° |
| 2026-04-13 18:26 | 39.51063 | -66.20818 | 38318 ft | 475 kts | 208° |
| 2026-04-13 18:26 | 39.44976 | -66.24040 | 38324 ft | 475 kts | 208° |
| 2026-04-13 18:27 | 39.38845 | -66.27280 | 38324 ft | 475 kts | 208° |
| 2026-04-13 18:27 | 39.32713 | -66.30515 | 38330 ft | 476 kts | 208° |
| 2026-04-13 18:28 | 39.26580 | -66.33744 | 38334 ft | 476 kts | 208° |
| 2026-04-13 18:28 | 39.20430 | -66.36975 | 38333 ft | 476 kts | 208° |
| 2026-04-13 18:29 | 39.14320 | -66.40179 | 38334 ft | 476 kts | 208° |
| 2026-04-13 18:29 | 39.08178 | -66.43395 | 38339 ft | 476 kts | 208° |
| 2026-04-13 18:30 | 39.02030 | -66.46607 | 38348 ft | 476 kts | 208° |
| 2026-04-13 18:30 | 38.95921 | -66.49793 | 38341 ft | 476 kts | 208° |
| 2026-04-13 18:31 | 38.89777 | -66.52991 | 38351 ft | 476 kts | 208° |
| 2026-04-13 18:31 | 38.83629 | -66.56186 | 38346 ft | 476 kts | 208° |
| 2026-04-13 18:32 | 38.77480 | -66.59376 | 38356 ft | 476 kts | 208° |
| 2026-04-13 18:32 | 38.71356 | -66.62547 | 38344 ft | 477 kts | 208° |
| 2026-04-13 18:33 | 38.65331 | -66.66046 | 38340 ft | 468 kts | 219° |
| 2026-04-13 18:33 | 38.60476 | -66.71384 | 38360 ft | 454 kts | 236° |
| 2026-04-13 18:34 | 38.54943 | -66.81035 | 38354 ft | 451 kts | 240° |
| 2026-04-13 18:34 | 38.51266 | -66.87541 | 38357 ft | 451 kts | 239° |
| 2026-04-13 18:35 | 38.47560 | -66.94012 | 38360 ft | 451 kts | 239° |
| 2026-04-13 18:35 | 38.43832 | -67.00474 | 38353 ft | 451 kts | 239° |
| 2026-04-13 18:36 | 38.40099 | -67.06924 | 38355 ft | 451 kts | 239° |
| 2026-04-13 18:36 | 38.36391 | -67.13319 | 38357 ft | 451 kts | 239° |
| 2026-04-13 18:37 | 38.32655 | -67.19752 | 38359 ft | 451 kts | 239° |
| 2026-04-13 18:37 | 38.28910 | -67.26190 | 38356 ft | 452 kts | 239° |
| 2026-04-13 18:38 | 38.25161 | -67.32621 | 38356 ft | 452 kts | 239° |
| 2026-04-13 18:38 | 38.21433 | -67.39004 | 38354 ft | 452 kts | 239° |
| 2026-04-13 18:39 | 38.17668 | -67.45437 | 38355 ft | 452 kts | 239° |
| 2026-04-13 18:39 | 38.13902 | -67.51859 | 38353 ft | 452 kts | 238° |
| 2026-04-13 18:40 | 38.10136 | -67.58268 | 38358 ft | 452 kts | 238° |
| 2026-04-13 18:40 | 38.06390 | -67.64632 | 38353 ft | 452 kts | 238° |
| 2026-04-13 18:41 | 38.02612 | -67.71036 | 38348 ft | 453 kts | 238° |
| 2026-04-13 18:41 | 37.98831 | -67.77435 | 38367 ft | 453 kts | 238° |
| 2026-04-13 18:42 | 37.95046 | -67.83826 | 38362 ft | 453 kts | 238° |
| 2026-04-13 18:42 | 37.91278 | -67.90178 | 38356 ft | 454 kts | 238° |
| 2026-04-13 18:43 | 37.87471 | -67.96583 | 38357 ft | 454 kts | 238° |
| 2026-04-13 18:43 | 37.83673 | -68.02958 | 38358 ft | 454 kts | 238° |
| 2026-04-13 18:44 | 37.79862 | -68.09345 | 38360 ft | 454 kts | 238° |
| 2026-04-13 18:44 | 37.76076 | -68.15676 | 38355 ft | 454 kts | 238° |
| 2026-04-13 18:45 | 37.72248 | -68.22067 | 38358 ft | 455 kts | 238° |
| 2026-04-13 18:45 | 37.68422 | -68.28440 | 38360 ft | 455 kts | 238° |
| 2026-04-13 18:46 | 37.64621 | -68.34761 | 38356 ft | 454 kts | 238° |
| 2026-04-13 18:46 | 37.60790 | -68.41119 | 38364 ft | 455 kts | 238° |
| 2026-04-13 18:47 | 37.56956 | -68.47472 | 38364 ft | 455 kts | 238° |
| 2026-04-13 18:47 | 37.53112 | -68.53827 | 38361 ft | 455 kts | 238° |
| 2026-04-13 18:48 | 37.49293 | -68.60129 | 38362 ft | 455 kts | 238° |
| 2026-04-13 18:48 | 37.45448 | -68.66462 | 38360 ft | 455 kts | 237° |
| 2026-04-13 18:49 | 37.41597 | -68.72793 | 38363 ft | 455 kts | 237° |
| 2026-04-13 18:49 | 37.37748 | -68.79110 | 38361 ft | 455 kts | 237° |
| 2026-04-13 18:50 | 37.33890 | -68.85429 | 38365 ft | 455 kts | 237° |
| 2026-04-13 18:50 | 37.30030 | -68.91741 | 38363 ft | 455 kts | 237° |
| 2026-04-13 18:51 | 37.26187 | -68.98008 | 38364 ft | 456 kts | 237° |
| 2026-04-13 18:51 | 37.22188 | -69.04208 | 38366 ft | 457 kts | 235° |
| 2026-04-13 18:52 | 37.18121 | -69.10341 | 38364 ft | 457 kts | 235° |
| 2026-04-13 18:52 | 37.14054 | -69.16483 | 38365 ft | 457 kts | 235° |
| 2026-04-13 18:53 | 37.10003 | -69.22626 | 38368 ft | 456 kts | 235° |
| 2026-04-13 18:53 | 37.05981 | -69.28728 | 38366 ft | 457 kts | 235° |
| 2026-04-13 18:54 | 37.01920 | -69.34881 | 38370 ft | 458 kts | 235° |
| 2026-04-13 18:54 | 36.97862 | -69.41017 | 38370 ft | 457 kts | 235° |
| 2026-04-13 18:55 | 36.93821 | -69.47114 | 38372 ft | 457 kts | 235° |
| 2026-04-13 18:55 | 36.89758 | -69.53234 | 38372 ft | 457 kts | 235° |
| 2026-04-13 18:56 | 36.85689 | -69.59351 | 38376 ft | 457 kts | 235° |
| 2026-04-13 18:56 | 36.81619 | -69.65459 | 38375 ft | 457 kts | 235° |
| 2026-04-13 18:57 | 36.77568 | -69.71528 | 38370 ft | 458 kts | 235° |
| 2026-04-13 18:57 | 36.73482 | -69.77637 | 38374 ft | 458 kts | 235° |
| 2026-04-13 18:58 | 36.69393 | -69.83739 | 38375 ft | 458 kts | 235° |
| 2026-04-13 18:58 | 36.65318 | -69.89809 | 38375 ft | 458 kts | 235° |
| 2026-04-13 18:59 | 36.61223 | -69.95898 | 38372 ft | 458 kts | 234° |
| 2026-04-13 18:59 | 36.57125 | -70.01981 | 38371 ft | 458 kts | 234° |
| 2026-04-13 19:00 | 36.53052 | -70.08016 | 38375 ft | 458 kts | 234° |
| 2026-04-13 19:00 | 36.48947 | -70.14088 | 38373 ft | 458 kts | 234° |
| 2026-04-13 19:01 | 36.44845 | -70.20143 | 38377 ft | 458 kts | 234° |
| 2026-04-13 19:01 | 36.40733 | -70.26203 | 38386 ft | 459 kts | 234° |
| 2026-04-13 19:02 | 36.36607 | -70.32272 | 38381 ft | 459 kts | 234° |
| 2026-04-13 19:02 | 36.32509 | -70.38288 | 38384 ft | 458 kts | 234° |
| 2026-04-13 19:03 | 36.28387 | -70.44329 | 38395 ft | 458 kts | 234° |
| 2026-04-13 19:03 | 36.24287 | -70.50329 | 38392 ft | 459 kts | 234° |
| 2026-04-13 19:04 | 36.20151 | -70.56371 | 38377 ft | 459 kts | 234° |
| 2026-04-13 19:04 | 36.16009 | -70.62409 | 38369 ft | 460 kts | 234° |
| 2026-04-13 19:05 | 36.11889 | -70.68404 | 38382 ft | 460 kts | 234° |
| 2026-04-13 19:05 | 36.07741 | -70.74429 | 38380 ft | 460 kts | 234° |
| 2026-04-13 19:06 | 36.03584 | -70.80459 | 38378 ft | 460 kts | 234° |
| 2026-04-13 19:06 | 35.99423 | -70.86481 | 38383 ft | 460 kts | 234° |
| 2026-04-13 19:07 | 35.95256 | -70.92502 | 38378 ft | 460 kts | 234° |
| 2026-04-13 19:07 | 35.91124 | -70.98462 | 38381 ft | 460 kts | 234° |
| 2026-04-13 19:08 | 35.86952 | -71.04469 | 38378 ft | 460 kts | 234° |
| 2026-04-13 19:08 | 35.82781 | -71.10464 | 38380 ft | 460 kts | 234° |
| 2026-04-13 19:09 | 35.78635 | -71.16412 | 38382 ft | 460 kts | 234° |
| 2026-04-13 19:09 | 35.74449 | -71.22408 | 38384 ft | 460 kts | 234° |
| 2026-04-13 19:10 | 35.70272 | -71.28380 | 38385 ft | 460 kts | 234° |
| 2026-04-13 19:10 | 35.66090 | -71.34348 | 38385 ft | 460 kts | 233° |
| 2026-04-13 19:11 | 35.61925 | -71.40282 | 38383 ft | 460 kts | 233° |
| 2026-04-13 19:11 | 35.57740 | -71.46235 | 38382 ft | 460 kts | 233° |
| 2026-04-13 19:12 | 35.53546 | -71.52190 | 38383 ft | 460 kts | 233° |
| 2026-04-13 19:12 | 35.50061 | -71.57130 | 38386 ft | 460 kts | 233° |
| 2026-04-13 19:13 | 35.45864 | -71.63069 | 38382 ft | 461 kts | 233° |
| 2026-04-13 19:13 | 35.40973 | -71.69978 | 38380 ft | 461 kts | 233° |
| 2026-04-13 19:14 | 35.37471 | -71.74917 | 38383 ft | 461 kts | 233° |
| 2026-04-13 19:14 | 35.33246 | -71.80866 | 38381 ft | 462 kts | 233° |
| 2026-04-13 19:15 | 35.29031 | -71.86790 | 38382 ft | 461 kts | 233° |
| 2026-04-13 19:15 | 35.24801 | -71.92725 | 38385 ft | 461 kts | 233° |
| 2026-04-13 19:16 | 35.20574 | -71.98645 | 38386 ft | 462 kts | 233° |
| 2026-04-13 19:16 | 35.16371 | -72.04523 | 38384 ft | 461 kts | 233° |
| 2026-04-13 19:17 | 35.12137 | -72.10432 | 38380 ft | 461 kts | 233° |
| 2026-04-13 19:17 | 35.07907 | -72.16325 | 38382 ft | 461 kts | 233° |
| 2026-04-13 19:18 | 35.03696 | -72.22184 | 38381 ft | 462 kts | 233° |
| 2026-04-13 19:18 | 34.99449 | -72.28083 | 38380 ft | 462 kts | 233° |
| 2026-04-13 19:19 | 34.95201 | -72.33971 | 38381 ft | 462 kts | 233° |
| 2026-04-13 19:19 | 34.90952 | -72.39852 | 38384 ft | 462 kts | 233° |
| 2026-04-13 19:20 | 34.86722 | -72.45696 | 38380 ft | 462 kts | 233° |
| 2026-04-13 19:20 | 34.82463 | -72.51570 | 38382 ft | 462 kts | 233° |
| 2026-04-13 19:21 | 34.78207 | -72.57430 | 38381 ft | 462 kts | 233° |
| 2026-04-13 19:21 | 34.73962 | -72.63265 | 38385 ft | 462 kts | 233° |
| 2026-04-13 19:22 | 34.69701 | -72.69113 | 38383 ft | 462 kts | 233° |
| 2026-04-13 19:22 | 34.65448 | -72.74940 | 38383 ft | 462 kts | 233° |
| 2026-04-13 19:23 | 34.61171 | -72.80790 | 38380 ft | 462 kts | 233° |
| 2026-04-13 19:23 | 34.56896 | -72.86626 | 38393 ft | 462 kts | 232° |
| 2026-04-13 19:24 | 34.50959 | -72.94718 | 38393 ft | 463 kts | 232° |
| 2026-04-13 19:24 | 34.33770 | -73.18035 | 38381 ft | 462 kts | 232° |
| 2026-04-13 19:25 | 34.16699 | -73.41039 | 38388 ft | 462 kts | 232° |
| 2026-04-13 19:25 | 33.99421 | -73.64170 | 38380 ft | 462 kts | 232° |
| 2026-04-13 19:26 | 33.82168 | -73.87117 | 38383 ft | 461 kts | 232° |
| 2026-04-13 19:26 | 33.64945 | -74.09876 | 38380 ft | 461 kts | 232° |
| 2026-04-13 19:27 | 33.47585 | -74.32669 | 38383 ft | 462 kts | 232° |
| 2026-04-13 19:27 | 33.30294 | -74.55226 | 38376 ft | 461 kts | 231° |
| 2026-04-13 19:28 | 33.12912 | -74.77760 | 38381 ft | 462 kts | 231° |
| 2026-04-13 19:28 | 32.95412 | -75.00304 | 38373 ft | 462 kts | 231° |
| 2026-04-13 19:29 | 32.78006 | -75.22587 | 38369 ft | 461 kts | 231° |
| 2026-04-13 19:29 | 32.60444 | -75.44932 | 38371 ft | 462 kts | 231° |
| 2026-04-13 19:30 | 32.42939 | -75.67066 | 38365 ft | 462 kts | 231° |
| 2026-04-13 19:30 | 32.25330 | -75.89199 | 38363 ft | 461 kts | 231° |
| 2026-04-13 19:31 | 32.07674 | -76.11255 | 38367 ft | 461 kts | 230° |
| 2026-04-13 19:31 | 31.90019 | -76.33178 | 38358 ft | 460 kts | 230° |
| 2026-04-13 19:32 | 31.72454 | -76.54861 | 38364 ft | 460 kts | 230° |
| 2026-04-13 19:32 | 31.54729 | -76.76614 | 38359 ft | 459 kts | 230° |
| 2026-04-13 19:33 | 31.43422 | -76.90456 | 38344 ft | 456 kts | 233° |
| 2026-04-13 19:33 | 31.41740 | -76.93508 | 38367 ft | 448 kts | 250° |
| 2026-04-13 19:34 | 31.40933 | -77.00596 | 38371 ft | 441 kts | 280° |
| 2026-04-13 19:34 | 31.42953 | -77.07296 | 38348 ft | 441 kts | 300° |
| 2026-04-13 19:34 | 31.44872 | -77.10094 | 38374 ft | 442 kts | 315° |
| 2026-04-13 19:35 | 31.47217 | -77.12465 | 38347 ft | 443 kts | 318° |
| 2026-04-13 19:35 | 31.51908 | -77.17093 | 38351 ft | 443 kts | 317° |
| 2026-04-13 19:36 | 31.56337 | -77.22076 | 38341 ft | 438 kts | 303° |
| 2026-04-13 19:36 | 31.57727 | -77.25235 | 38354 ft | 438 kts | 288° |
| 2026-04-13 19:36 | 31.58330 | -77.28746 | 38369 ft | 439 kts | 274° |
| 2026-04-13 19:36 | 31.58200 | -77.32289 | 38348 ft | 443 kts | 262° |
| 2026-04-13 19:37 | 31.57406 | -77.35782 | 38367 ft | 445 kts | 252° |
| 2026-04-13 19:37 | 31.56040 | -77.39059 | 38340 ft | 450 kts | 238° |
| 2026-04-13 19:37 | 31.53934 | -77.41805 | 38375 ft | 455 kts | 227° |
| 2026-04-13 19:38 | 31.49157 | -77.46733 | 38367 ft | 458 kts | 225° |
| 2026-04-13 19:38 | 31.44355 | -77.51671 | 38359 ft | 458 kts | 226° |
| 2026-04-13 19:39 | 31.39663 | -77.56657 | 38352 ft | 457 kts | 226° |
| 2026-04-13 19:39 | 31.34971 | -77.61690 | 38350 ft | 457 kts | 226° |
| 2026-04-13 19:40 | 31.30265 | -77.66722 | 38356 ft | 457 kts | 226° |
| 2026-04-13 19:40 | 31.25781 | -77.71899 | 38362 ft | 454 kts | 233° |
| 2026-04-13 19:41 | 31.21996 | -77.77798 | 38356 ft | 451 kts | 237° |
| 2026-04-13 19:41 | 31.18327 | -77.83703 | 38350 ft | 451 kts | 237° |
| 2026-04-13 19:42 | 31.12732 | -77.92577 | 38349 ft | 451 kts | 237° |
| 2026-04-13 19:42 | 31.08998 | -77.98472 | 38349 ft | 451 kts | 237° |
| 2026-04-13 19:43 | 31.05261 | -78.04359 | 38353 ft | 451 kts | 237° |
| 2026-04-13 19:43 | 31.01539 | -78.10216 | 38348 ft | 451 kts | 237° |
| 2026-04-13 19:44 | 30.97800 | -78.16095 | 38344 ft | 450 kts | 237° |
| 2026-04-13 19:44 | 30.94088 | -78.21923 | 38349 ft | 450 kts | 236° |
| 2026-04-13 19:45 | 30.90341 | -78.27791 | 38348 ft | 450 kts | 236° |
| 2026-04-13 19:45 | 30.86615 | -78.33620 | 38345 ft | 450 kts | 236° |
| 2026-04-13 19:46 | 30.82871 | -78.39472 | 38345 ft | 449 kts | 236° |
| 2026-04-13 19:46 | 30.79136 | -78.45299 | 38343 ft | 449 kts | 236° |
| 2026-04-13 19:47 | 30.75390 | -78.51130 | 38345 ft | 449 kts | 236° |
| 2026-04-13 19:47 | 30.71653 | -78.56944 | 38341 ft | 449 kts | 236° |
| 2026-04-13 19:48 | 30.67930 | -78.62728 | 38337 ft | 449 kts | 236° |
| 2026-04-13 19:48 | 30.63643 | -78.67991 | 38337 ft | 457 kts | 217° |
| 2026-04-13 19:49 | 30.60820 | -78.69748 | 38344 ft | 464 kts | 206° |
| 2026-04-13 19:49 | 30.57689 | -78.70791 | 38335 ft | 471 kts | 193° |
| 2026-04-13 19:49 | 30.51155 | -78.71869 | 38341 ft | 475 kts | 191° |
| 2026-04-13 19:50 | 30.44594 | -78.72882 | 38334 ft | 474 kts | 192° |
| 2026-04-13 19:50 | 30.38097 | -78.73963 | 38335 ft | 473 kts | 192° |
| 2026-04-13 19:51 | 30.31559 | -78.75096 | 38339 ft | 473 kts | 193° |
| 2026-04-13 19:51 | 30.25076 | -78.76226 | 38339 ft | 474 kts | 192° |
| 2026-04-13 19:52 | 30.18550 | -78.77359 | 38336 ft | 474 kts | 192° |
| 2026-04-13 19:52 | 30.12021 | -78.78488 | 38336 ft | 474 kts | 192° |
| 2026-04-13 19:53 | 30.05486 | -78.79617 | 38337 ft | 474 kts | 192° |
| 2026-04-13 19:53 | 29.98947 | -78.80745 | 38336 ft | 475 kts | 192° |
| 2026-04-13 19:54 | 29.92441 | -78.81866 | 38335 ft | 475 kts | 192° |
| 2026-04-13 19:54 | 29.85882 | -78.82994 | 38339 ft | 476 kts | 192° |
| 2026-04-13 19:55 | 29.79325 | -78.84121 | 38335 ft | 476 kts | 192° |
| 2026-04-13 19:55 | 29.72782 | -78.85117 | 38334 ft | 477 kts | 190° |
| 2026-04-13 19:56 | 29.66159 | -78.85974 | 38325 ft | 478 kts | 190° |
| 2026-04-13 19:56 | 29.59583 | -78.86825 | 38327 ft | 478 kts | 190° |
| 2026-04-13 19:57 | 29.52964 | -78.87706 | 38329 ft | 478 kts | 190° |
| 2026-04-13 19:57 | 29.46332 | -78.88598 | 38327 ft | 478 kts | 190° |
| 2026-04-13 19:58 | 29.39747 | -78.89484 | 38325 ft | 479 kts | 190° |
| 2026-04-13 19:58 | 29.33117 | -78.90375 | 38321 ft | 479 kts | 190° |
| 2026-04-13 19:59 | 29.26474 | -78.91265 | 38317 ft | 480 kts | 190° |
| 2026-04-13 19:59 | 29.19862 | -78.92149 | 38321 ft | 480 kts | 190° |
| 2026-04-13 20:00 | 29.13212 | -78.93037 | 38320 ft | 480 kts | 190° |
| 2026-04-13 20:00 | 29.07677 | -78.93776 | 38315 ft | 481 kts | 190° |
| 2026-04-13 20:01 | 28.99937 | -78.94808 | 38320 ft | 482 kts | 190° |
| 2026-04-13 20:01 | 28.94387 | -78.95546 | 38336 ft | 482 kts | 190° |
| 2026-04-13 20:02 | 28.87710 | -78.96434 | 38317 ft | 483 kts | 190° |
| 2026-04-13 20:02 | 28.81025 | -78.97321 | 38318 ft | 483 kts | 190° |
| 2026-04-13 20:03 | 28.74347 | -78.98207 | 38319 ft | 483 kts | 190° |
| 2026-04-13 20:03 | 28.67678 | -78.99090 | 38309 ft | 483 kts | 190° |
| 2026-04-13 20:04 | 28.60988 | -78.99975 | 38309 ft | 484 kts | 190° |
| 2026-04-13 20:04 | 28.54293 | -79.00859 | 38304 ft | 484 kts | 190° |
| 2026-04-13 20:05 | 28.47632 | -79.01738 | 38314 ft | 483 kts | 190° |
| 2026-04-13 20:05 | 28.40937 | -79.02620 | 38299 ft | 483 kts | 190° |
| 2026-04-13 20:06 | 28.34261 | -79.03520 | 38304 ft | 483 kts | 192° |
| 2026-04-13 20:06 | 28.27878 | -79.05529 | 38308 ft | 478 kts | 202° |
| 2026-04-13 20:07 | 28.21605 | -79.08071 | 38300 ft | 477 kts | 203° |
| 2026-04-13 20:07 | 28.15365 | -79.10536 | 38304 ft | 477 kts | 202° |
| 2026-04-13 20:08 | 28.09044 | -79.12923 | 38300 ft | 478 kts | 202° |
| 2026-04-13 20:08 | 28.02717 | -79.15268 | 38297 ft | 478 kts | 202° |
| 2026-04-13 20:09 | 27.96407 | -79.17603 | 38292 ft | 478 kts | 202° |
| 2026-04-13 20:09 | 27.90071 | -79.19951 | 38298 ft | 478 kts | 202° |
| 2026-04-13 20:10 | 27.83742 | -79.22296 | 38293 ft | 478 kts | 202° |
| 2026-04-13 20:10 | 27.77415 | -79.24638 | 37954 ft | 478 kts | 202° |
| 2026-04-13 20:11 | 27.74264 | -79.25802 | 37581 ft | 472 kts | 202° |
| 2026-04-13 20:11 | 27.71188 | -79.26937 | 37139 ft | 470 kts | 202° |
| 2026-04-13 20:11 | 27.68074 | -79.28089 | 36672 ft | 468 kts | 202° |
| 2026-04-13 20:11 | 27.64973 | -79.29234 | 36390 ft | 471 kts | 202° |
| 2026-04-13 20:12 | 27.61885 | -79.30372 | 36251 ft | 461 kts | 202° |
| 2026-04-13 20:12 | 27.58858 | -79.31485 | 35578 ft | 453 kts | 202° |
| 2026-04-13 20:12 | 27.55849 | -79.32593 | 34889 ft | 455 kts | 202° |
| 2026-04-13 20:12 | 27.52844 | -79.33701 | 34380 ft | 452 kts | 201° |
| 2026-04-13 20:13 | 27.49859 | -79.34799 | 33932 ft | 447 kts | 201° |
| 2026-04-13 20:13 | 27.46954 | -79.35868 | 33466 ft | 443 kts | 201° |
| 2026-04-13 20:13 | 27.44028 | -79.36944 | 32924 ft | 440 kts | 201° |
| 2026-04-13 20:13 | 27.41109 | -79.38017 | 32388 ft | 438 kts | 201° |
| 2026-04-13 20:14 | 27.38221 | -79.39078 | 31851 ft | 436 kts | 201° |
| 2026-04-13 20:14 | 27.35340 | -79.40136 | 31354 ft | 434 kts | 201° |
| 2026-04-13 20:14 | 27.32513 | -79.41173 | 30869 ft | 431 kts | 200° |
| 2026-04-13 20:14 | 27.29662 | -79.42217 | 30401 ft | 429 kts | 200° |
| 2026-04-13 20:15 | 27.26825 | -79.43256 | 29866 ft | 426 kts | 200° |
| 2026-04-13 20:15 | 27.24012 | -79.44285 | 29373 ft | 423 kts | 200° |
| 2026-04-13 20:15 | 27.21222 | -79.45305 | 28892 ft | 420 kts | 200° |
| 2026-04-13 20:15 | 27.18461 | -79.46315 | 28704 ft | 411 kts | 200° |
| 2026-04-13 20:16 | 27.15788 | -79.47291 | 28475 ft | 404 kts | 200° |
| 2026-04-13 20:16 | 27.13122 | -79.48265 | 28056 ft | 401 kts | 200° |
| 2026-04-13 20:16 | 27.10464 | -79.49237 | 27610 ft | 399 kts | 200° |
| 2026-04-13 20:16 | 27.07846 | -79.50194 | 27144 ft | 398 kts | 200° |
| 2026-04-13 20:17 | 27.05206 | -79.51157 | 26718 ft | 396 kts | 199° |
| 2026-04-13 20:17 | 27.02589 | -79.52111 | 26300 ft | 394 kts | 199° |
| 2026-04-13 20:17 | 26.99986 | -79.53060 | 25928 ft | 392 kts | 199° |
| 2026-04-13 20:17 | 26.97406 | -79.54000 | 25573 ft | 389 kts | 199° |
| 2026-04-13 20:18 | 26.94829 | -79.54937 | 25259 ft | 392 kts | 199° |
| 2026-04-13 20:18 | 26.92159 | -79.55907 | 25213 ft | 409 kts | 199° |
| 2026-04-13 20:18 | 26.89418 | -79.56905 | 24943 ft | 417 kts | 199° |
| 2026-04-13 20:18 | 26.86666 | -79.57902 | 24616 ft | 409 kts | 198° |
| 2026-04-13 20:19 | 26.84027 | -79.58854 | 24291 ft | 399 kts | 198° |
| 2026-04-13 20:19 | 26.81381 | -79.59807 | 23992 ft | 398 kts | 198° |
| 2026-04-13 20:19 | 26.78766 | -79.60749 | 23716 ft | 393 kts | 198° |
| 2026-04-13 20:19 | 26.76162 | -79.61687 | 23310 ft | 391 kts | 198° |
| 2026-04-13 20:20 | 26.73577 | -79.62618 | 22922 ft | 390 kts | 198° |
| 2026-04-13 20:20 | 26.70989 | -79.63550 | 22547 ft | 389 kts | 198° |
| 2026-04-13 20:20 | 26.68420 | -79.64475 | 22172 ft | 387 kts | 198° |
| 2026-04-13 20:20 | 26.65889 | -79.65386 | 21810 ft | 385 kts | 198° |
| 2026-04-13 20:21 | 26.63339 | -79.66302 | 21431 ft | 383 kts | 198° |
| 2026-04-13 20:21 | 26.60808 | -79.67205 | 21063 ft | 379 kts | 197° |
| 2026-04-13 20:21 | 26.58295 | -79.68085 | 20704 ft | 376 kts | 197° |
| 2026-04-13 20:21 | 26.55800 | -79.68954 | 20345 ft | 374 kts | 197° |
| 2026-04-13 20:22 | 26.53318 | -79.69821 | 19993 ft | 371 kts | 197° |
| 2026-04-13 20:22 | 26.50860 | -79.70680 | 19644 ft | 369 kts | 197° |
| 2026-04-13 20:22 | 26.48439 | -79.71526 | 19305 ft | 367 kts | 198° |
| 2026-04-13 20:22 | 26.46074 | -79.72532 | 18938 ft | 362 kts | 210° |
| 2026-04-13 20:23 | 26.44143 | -79.74295 | 18620 ft | 356 kts | 229° |
| 2026-04-13 20:23 | 26.42502 | -79.76369 | 18264 ft | 356 kts | 230° |
| 2026-04-13 20:23 | 26.40845 | -79.78445 | 17860 ft | 358 kts | 229° |
| 2026-04-13 20:23 | 26.39188 | -79.80481 | 17497 ft | 359 kts | 228° |
| 2026-04-13 20:24 | 26.37558 | -79.82602 | 17127 ft | 359 kts | 234° |
| 2026-04-13 20:24 | 26.36135 | -79.84896 | 16763 ft | 358 kts | 237° |
| 2026-04-13 20:24 | 26.34759 | -79.87214 | 16390 ft | 358 kts | 236° |
| 2026-04-13 20:24 | 26.33369 | -79.89496 | 16036 ft | 359 kts | 235° |
| 2026-04-13 20:25 | 26.31945 | -79.91792 | 15684 ft | 359 kts | 235° |
| 2026-04-13 20:25 | 26.30525 | -79.94061 | 15337 ft | 359 kts | 234° |
| 2026-04-13 20:25 | 26.29091 | -79.96348 | 14989 ft | 359 kts | 234° |
| 2026-04-13 20:25 | 26.27662 | -79.98625 | 14632 ft | 357 kts | 234° |
| 2026-04-13 20:26 | 26.26182 | -80.00807 | 14259 ft | 348 kts | 223° |
| 2026-04-13 20:26 | 26.24214 | -80.02334 | 13904 ft | 344 kts | 202° |
| 2026-04-13 20:26 | 26.21948 | -80.03082 | 13526 ft | 335 kts | 189° |
| 2026-04-13 20:26 | 26.19716 | -80.03574 | 13153 ft | 327 kts | 188° |
| 2026-04-13 20:27 | 26.17457 | -80.04048 | 12795 ft | 331 kts | 188° |
| 2026-04-13 20:27 | 26.15204 | -80.04531 | 12418 ft | 328 kts | 188° |
| 2026-04-13 20:27 | 26.12966 | -80.05026 | 12036 ft | 325 kts | 188° |
| 2026-04-13 20:27 | 26.10760 | -80.05525 | 11680 ft | 322 kts | 188° |
| 2026-04-13 20:28 | 26.08592 | -80.06019 | 11325 ft | 321 kts | 188° |
| 2026-04-13 20:28 | 26.06410 | -80.06523 | 10971 ft | 319 kts | 189° |
| 2026-04-13 20:28 | 26.04246 | -80.07075 | 10624 ft | 317 kts | 190° |
| 2026-04-13 20:28 | 26.02107 | -80.07641 | 10358 ft | 312 kts | 190° |
| 2026-04-13 20:29 | 26.00035 | -80.08188 | 10123 ft | 307 kts | 189° |
| 2026-04-13 20:29 | 25.97963 | -80.08729 | 9872 ft | 305 kts | 189° |
| 2026-04-13 20:29 | 25.95893 | -80.09267 | 9617 ft | 304 kts | 189° |
| 2026-04-13 20:29 | 25.93846 | -80.09799 | 9361 ft | 303 kts | 189° |
| 2026-04-13 20:30 | 25.91799 | -80.10400 | 9094 ft | 302 kts | 197° |
| 2026-04-13 20:30 | 25.89880 | -80.11382 | 8868 ft | 305 kts | 204° |
| 2026-04-13 20:30 | 25.88036 | -80.12496 | 8654 ft | 305 kts | 206° |
| 2026-04-13 20:30 | 25.86175 | -80.13638 | 8401 ft | 306 kts | 205° |
| 2026-04-13 20:31 | 25.84294 | -80.14772 | 8178 ft | 306 kts | 205° |
| 2026-04-13 20:31 | 25.82413 | -80.15885 | 7901 ft | 304 kts | 204° |
| 2026-04-13 20:31 | 25.80551 | -80.16976 | 7659 ft | 301 kts | 204° |
| 2026-04-13 20:31 | 25.78693 | -80.18053 | 7423 ft | 301 kts | 204° |
| 2026-04-13 20:32 | 25.76826 | -80.19130 | 7216 ft | 299 kts | 204° |
| 2026-04-13 20:32 | 25.75004 | -80.20182 | 6963 ft | 291 kts | 204° |
| 2026-04-13 20:32 | 25.73316 | -80.21338 | 6681 ft | 291 kts | 220° |
| 2026-04-13 20:32 | 25.72179 | -80.23205 | 6425 ft | 295 kts | 249° |
| 2026-04-13 20:33 | 25.71656 | -80.25428 | 6222 ft | 300 kts | 257° |
| 2026-04-13 20:33 | 25.71214 | -80.27713 | 5985 ft | 304 kts | 260° |
| 2026-04-13 20:33 | 25.71008 | -80.30060 | 5741 ft | 305 kts | 268° |
| 2026-04-13 20:33 | 25.70939 | -80.32355 | 5482 ft | 297 kts | 269° |
| 2026-04-13 20:34 | 25.70880 | -80.34626 | 5238 ft | 290 kts | 269° |
| 2026-04-13 20:34 | 25.70804 | -80.36842 | 4943 ft | 286 kts | 268° |
| 2026-04-13 20:34 | 25.70713 | -80.39043 | 4633 ft | 285 kts | 267° |
| 2026-04-13 20:34 | 25.70610 | -80.41237 | 4328 ft | 283 kts | 268° |
| 2026-04-13 20:35 | 25.70506 | -80.43419 | 4038 ft | 283 kts | 268° |
| 2026-04-13 20:35 | 25.70388 | -80.45580 | 3765 ft | 280 kts | 267° |
| 2026-04-13 20:35 | 25.70262 | -80.47688 | 3446 ft | 267 kts | 267° |
| 2026-04-13 20:35 | 25.70142 | -80.49701 | 3129 ft | 259 kts | 267° |
| 2026-04-13 20:36 | 25.70208 | -80.51662 | 3043 ft | 250 kts | 289° |
| 2026-04-13 20:36 | 25.71033 | -80.53267 | 2981 ft | 230 kts | 322° |
| 2026-04-13 20:36 | 25.72346 | -80.54034 | 2996 ft | 208 kts | 355° |
| 2026-04-13 20:36 | 25.73766 | -80.54171 | 2994 ft | 201 kts | 2° |
| 2026-04-13 20:37 | 25.75148 | -80.54260 | 2973 ft | 202 kts | 4° |
| 2026-04-13 20:37 | 25.76444 | -80.53942 | 2986 ft | 182 kts | 39° |
| 2026-04-13 20:37 | 25.77157 | -80.52848 | 2981 ft | 176 kts | 75° |
| 2026-04-13 20:37 | 25.77427 | -80.51517 | 3004 ft | 179 kts | 79° |
| 2026-04-13 20:38 | 25.77641 | -80.50192 | 2984 ft | 175 kts | 79° |
| 2026-04-13 20:38 | 25.77832 | -80.48845 | 3006 ft | 177 kts | 82° |
| 2026-04-13 20:38 | 25.77942 | -80.47476 | 2850 ft | 182 kts | 85° |
| 2026-04-13 20:38 | 25.78012 | -80.46075 | 2636 ft | 181 kts | 86° |
| 2026-04-13 20:39 | 25.78070 | -80.44720 | 2393 ft | 169 kts | 86° |
| 2026-04-13 20:39 | 25.78123 | -80.43473 | 2203 ft | 155 kts | 86° |
| 2026-04-13 20:39 | 25.78168 | -80.42322 | 2027 ft | 145 kts | 86° |
| 2026-04-13 20:39 | 25.78212 | -80.41179 | 1832 ft | 148 kts | 85° |
| 2026-04-13 20:40 | 25.78260 | -80.40093 | 1615 ft | 133 kts | 86° |
| 2026-04-13 20:40 | 25.78298 | -80.39140 | 1459 ft | 117 kts | 86° |
| 2026-04-13 20:40 | 25.78336 | -80.38210 | 1312 ft | 123 kts | 85° |
| 2026-04-13 20:40 | 25.78375 | -80.37259 | 1133 ft | 122 kts | 87° |
| 2026-04-13 20:41 | 25.78412 | -80.36338 | 998 ft | 122 kts | 86° |
| 2026-04-13 20:41 | 25.78452 | -80.35392 | 812 ft | 120 kts | 87° |
| 2026-04-13 20:41 | 25.78489 | -80.34453 | 660 ft | 124 kts | 86° |
| 2026-04-13 20:41 | 25.78530 | -80.33486 | 482 ft | 125 kts | 85° |
| 2026-04-13 20:42 | 25.78572 | -80.32524 | 317 ft | 126 kts | 86° |
| 2026-04-13 20:42 | 25.78611 | -80.31571 | 124 ft | 121 kts | 87° |
| 2026-04-13 20:42 | 25.78635 | -80.30683 | 30 ft | 106 kts | 87° |
| 2026-04-13 20:42 | 25.78668 | -80.30055 | 22 ft | 49 kts | 87° |
| 2026-04-13 20:43 | 25.78680 | -80.29839 | 23 ft | 15 kts | 79° |
| 2026-04-13 20:43 | 25.78732 | -80.29810 | 25 ft | 9 kts | 328° |
| 2026-04-13 20:43 | 25.78791 | -80.29841 | 27 ft | 9 kts | 345° |
| 2026-04-13 20:43 | 25.78852 | -80.29863 | 28 ft | 10 kts | 317° |
| 2026-04-13 20:44 | 25.78867 | -80.29934 | 29 ft | 10 kts | 269° |
| 2026-04-13 20:44 | 25.78864 | -80.30016 | 26 ft | 12 kts | 266° |
| 2026-04-13 20:44 | 25.78862 | -80.30116 | 26 ft | 14 kts | 268° |
| 2026-04-13 20:44 | 25.78855 | -80.30237 | 25 ft | 17 kts | 268° |
| 2026-04-13 20:45 | 25.78850 | -80.30355 | 23 ft | 10 kts | 266° |
| 2026-04-13 20:45 | 25.78846 | -80.30435 | 22 ft | 11 kts | 267° |
| 2026-04-13 20:45 | 25.78850 | -80.30523 | 21 ft | 9 kts | 294° |
| 2026-04-13 20:46 | 25.78938 | -80.30587 | 20 ft | 6 kts | 283° |
| 2026-04-13 20:46 | 25.78940 | -80.30618 | 19 ft | 3 kts | 271° |
| 2026-04-13 20:46 | 25.78940 | -80.30632 | 19 ft | 2 kts | 269° |
| 2026-04-13 20:46 | 25.78940 | -80.30643 | 19 ft | 0 kts | 269° |